<?xml version="1.0" encoding="UTF-8" standalone="no" ?>
<gpx xmlns="http://www.topografix.com/GPX/1/1" xmlns:xsi="http://www.w3.org/2001/XMLSchema-instance" xsi:schemaLocation="http://www.topografix.com/GPX/1/1 http://www.topografix.com/GPX/1/1/gpx.xsd" version="1.1" creator="VisuGPX - https://www.visugpx.com">
  <metadata>
    <name>BOURG ARGENTAL BURDIGNES</name>
    <desc><![CDATA[Temps humide descente glissante]]></desc>
  </metadata>
  <trk>
    <name><![CDATA[BOURG ARGENTAL BURDIGNES]]></name>
    <trkseg>
      <trkpt lat="45.29776" lon="4.55903">
        <ele>568</ele>
        <time>2014-04-08T07:52:25.000Z</time>
      </trkpt>
      <trkpt lat="45.29752" lon="4.55906">
        <ele>554</ele>
        <time>2014-04-08T07:54:42.000Z</time>
      </trkpt>
      <trkpt lat="45.29751" lon="4.55907">
        <ele>553</ele>
        <time>2014-04-08T07:54:43.000Z</time>
      </trkpt>
      <trkpt lat="45.29665" lon="4.56024">
        <ele>564</ele>
        <time>2014-04-08T07:56:24.000Z</time>
      </trkpt>
      <trkpt lat="45.29665" lon="4.56023">
        <ele>565</ele>
        <time>2014-04-08T07:56:25.000Z</time>
      </trkpt>
      <trkpt lat="45.29631" lon="4.55961">
        <ele>562</ele>
        <time>2014-04-08T07:57:25.000Z</time>
      </trkpt>
      <trkpt lat="45.2963" lon="4.55957">
        <ele>561</ele>
        <time>2014-04-08T07:57:26.000Z</time>
      </trkpt>
      <trkpt lat="45.2961" lon="4.5594">
        <ele>555</ele>
        <time>2014-04-08T07:57:36.000Z</time>
      </trkpt>
      <trkpt lat="45.29609" lon="4.55939">
        <ele>555</ele>
        <time>2014-04-08T07:57:37.000Z</time>
      </trkpt>
      <trkpt lat="45.29588" lon="4.55926">
        <ele>568</ele>
        <time>2014-04-08T07:58:04.000Z</time>
      </trkpt>
      <trkpt lat="45.29586" lon="4.55925">
        <ele>568</ele>
        <time>2014-04-08T07:58:05.000Z</time>
      </trkpt>
      <trkpt lat="45.29565" lon="4.55914">
        <ele>568</ele>
        <time>2014-04-08T07:58:23.000Z</time>
      </trkpt>
      <trkpt lat="45.29549" lon="4.55894">
        <ele>566</ele>
        <time>2014-04-08T07:58:38.000Z</time>
      </trkpt>
      <trkpt lat="45.29548" lon="4.55892">
        <ele>567</ele>
        <time>2014-04-08T07:58:39.000Z</time>
      </trkpt>
      <trkpt lat="45.29532" lon="4.55868">
        <ele>582</ele>
        <time>2014-04-08T07:58:55.000Z</time>
      </trkpt>
      <trkpt lat="45.29531" lon="4.55867">
        <ele>582</ele>
        <time>2014-04-08T07:58:56.000Z</time>
      </trkpt>
      <trkpt lat="45.29517" lon="4.55842">
        <ele>580</ele>
        <time>2014-04-08T07:59:24.000Z</time>
      </trkpt>
      <trkpt lat="45.29516" lon="4.55841">
        <ele>580</ele>
        <time>2014-04-08T07:59:25.000Z</time>
      </trkpt>
      <trkpt lat="45.29504" lon="4.55813">
        <ele>573</ele>
        <time>2014-04-08T07:59:43.000Z</time>
      </trkpt>
      <trkpt lat="45.29504" lon="4.55812">
        <ele>571</ele>
        <time>2014-04-08T07:59:44.000Z</time>
      </trkpt>
      <trkpt lat="45.29485" lon="4.55791">
        <ele>565</ele>
        <time>2014-04-08T08:00:01.000Z</time>
      </trkpt>
      <trkpt lat="45.29485" lon="4.5579">
        <ele>565</ele>
        <time>2014-04-08T08:00:02.000Z</time>
      </trkpt>
      <trkpt lat="45.29443" lon="4.55728">
        <ele>539</ele>
        <time>2014-04-08T08:00:51.000Z</time>
      </trkpt>
      <trkpt lat="45.29442" lon="4.55726">
        <ele>539</ele>
        <time>2014-04-08T08:00:52.000Z</time>
      </trkpt>
      <trkpt lat="45.29426" lon="4.55701">
        <ele>569</ele>
        <time>2014-04-08T08:01:08.000Z</time>
      </trkpt>
      <trkpt lat="45.29425" lon="4.55699">
        <ele>568</ele>
        <time>2014-04-08T08:01:09.000Z</time>
      </trkpt>
      <trkpt lat="45.29408" lon="4.55677">
        <ele>566</ele>
        <time>2014-04-08T08:01:24.000Z</time>
      </trkpt>
      <trkpt lat="45.29406" lon="4.55676">
        <ele>566</ele>
        <time>2014-04-08T08:01:25.000Z</time>
      </trkpt>
      <trkpt lat="45.2939" lon="4.55652">
        <ele>567</ele>
        <time>2014-04-08T08:01:42.000Z</time>
      </trkpt>
      <trkpt lat="45.29389" lon="4.55651">
        <ele>567</ele>
        <time>2014-04-08T08:01:43.000Z</time>
      </trkpt>
      <trkpt lat="45.29374" lon="4.55627">
        <ele>572</ele>
        <time>2014-04-08T08:01:59.000Z</time>
      </trkpt>
      <trkpt lat="45.29372" lon="4.55626">
        <ele>571</ele>
        <time>2014-04-08T08:02:00.000Z</time>
      </trkpt>
      <trkpt lat="45.2936" lon="4.55598">
        <ele>566</ele>
        <time>2014-04-08T08:02:17.000Z</time>
      </trkpt>
      <trkpt lat="45.29359" lon="4.55598">
        <ele>567</ele>
        <time>2014-04-08T08:02:18.000Z</time>
      </trkpt>
      <trkpt lat="45.29343" lon="4.55574">
        <ele>574</ele>
        <time>2014-04-08T08:02:33.000Z</time>
      </trkpt>
      <trkpt lat="45.29343" lon="4.55572">
        <ele>573</ele>
        <time>2014-04-08T08:02:34.000Z</time>
      </trkpt>
      <trkpt lat="45.29332" lon="4.55543">
        <ele>561</ele>
        <time>2014-04-08T08:02:52.000Z</time>
      </trkpt>
      <trkpt lat="45.29332" lon="4.55541">
        <ele>560</ele>
        <time>2014-04-08T08:02:53.000Z</time>
      </trkpt>
      <trkpt lat="45.29318" lon="4.55514">
        <ele>558</ele>
        <time>2014-04-08T08:03:11.000Z</time>
      </trkpt>
      <trkpt lat="45.29317" lon="4.55513">
        <ele>557</ele>
        <time>2014-04-08T08:03:12.000Z</time>
      </trkpt>
      <trkpt lat="45.29302" lon="4.55489">
        <ele>562</ele>
        <time>2014-04-08T08:03:30.000Z</time>
      </trkpt>
      <trkpt lat="45.293" lon="4.55489">
        <ele>562</ele>
        <time>2014-04-08T08:03:32.000Z</time>
      </trkpt>
      <trkpt lat="45.29278" lon="4.5548">
        <ele>554</ele>
        <time>2014-04-08T08:03:51.000Z</time>
      </trkpt>
      <trkpt lat="45.29277" lon="4.5548">
        <ele>553</ele>
        <time>2014-04-08T08:03:52.000Z</time>
      </trkpt>
      <trkpt lat="45.29253" lon="4.55478">
        <ele>553</ele>
        <time>2014-04-08T08:04:10.000Z</time>
      </trkpt>
      <trkpt lat="45.29252" lon="4.55477">
        <ele>553</ele>
        <time>2014-04-08T08:04:11.000Z</time>
      </trkpt>
      <trkpt lat="45.29229" lon="4.55477">
        <ele>550</ele>
        <time>2014-04-08T08:04:28.000Z</time>
      </trkpt>
      <trkpt lat="45.29227" lon="4.55477">
        <ele>551</ele>
        <time>2014-04-08T08:04:29.000Z</time>
      </trkpt>
      <trkpt lat="45.29204" lon="4.55477">
        <ele>557</ele>
        <time>2014-04-08T08:04:46.000Z</time>
      </trkpt>
      <trkpt lat="45.29203" lon="4.55477">
        <ele>558</ele>
        <time>2014-04-08T08:04:47.000Z</time>
      </trkpt>
      <trkpt lat="45.29179" lon="4.55475">
        <ele>556</ele>
        <time>2014-04-08T08:05:09.000Z</time>
      </trkpt>
      <trkpt lat="45.29175" lon="4.55476">
        <ele>558</ele>
        <time>2014-04-08T08:05:12.000Z</time>
      </trkpt>
      <trkpt lat="45.29151" lon="4.55476">
        <ele>553</ele>
        <time>2014-04-08T08:05:29.000Z</time>
      </trkpt>
      <trkpt lat="45.2915" lon="4.55476">
        <ele>552</ele>
        <time>2014-04-08T08:05:30.000Z</time>
      </trkpt>
      <trkpt lat="45.29126" lon="4.55475">
        <ele>550</ele>
        <time>2014-04-08T08:05:48.000Z</time>
      </trkpt>
      <trkpt lat="45.29125" lon="4.55475">
        <ele>550</ele>
        <time>2014-04-08T08:05:49.000Z</time>
      </trkpt>
      <trkpt lat="45.29102" lon="4.55469">
        <ele>558</ele>
        <time>2014-04-08T08:06:06.000Z</time>
      </trkpt>
      <trkpt lat="45.291" lon="4.55469">
        <ele>558</ele>
        <time>2014-04-08T08:06:07.000Z</time>
      </trkpt>
      <trkpt lat="45.29077" lon="4.55468">
        <ele>558</ele>
        <time>2014-04-08T08:06:26.000Z</time>
      </trkpt>
      <trkpt lat="45.29076" lon="4.55468">
        <ele>557</ele>
        <time>2014-04-08T08:06:27.000Z</time>
      </trkpt>
      <trkpt lat="45.29053" lon="4.55473">
        <ele>548</ele>
        <time>2014-04-08T08:06:50.000Z</time>
      </trkpt>
      <trkpt lat="45.29052" lon="4.55473">
        <ele>547</ele>
        <time>2014-04-08T08:06:51.000Z</time>
      </trkpt>
      <trkpt lat="45.2903" lon="4.55484">
        <ele>557</ele>
        <time>2014-04-08T08:07:08.000Z</time>
      </trkpt>
      <trkpt lat="45.29028" lon="4.55485">
        <ele>559</ele>
        <time>2014-04-08T08:07:09.000Z</time>
      </trkpt>
      <trkpt lat="45.29005" lon="4.55487">
        <ele>569</ele>
        <time>2014-04-08T08:07:25.000Z</time>
      </trkpt>
      <trkpt lat="45.29004" lon="4.55487">
        <ele>569</ele>
        <time>2014-04-08T08:07:26.000Z</time>
      </trkpt>
      <trkpt lat="45.28984" lon="4.5547">
        <ele>560</ele>
        <time>2014-04-08T08:07:48.000Z</time>
      </trkpt>
      <trkpt lat="45.28984" lon="4.55469">
        <ele>560</ele>
        <time>2014-04-08T08:07:49.000Z</time>
      </trkpt>
      <trkpt lat="45.28973" lon="4.55441">
        <ele>572</ele>
        <time>2014-04-08T08:08:09.000Z</time>
      </trkpt>
      <trkpt lat="45.28972" lon="4.5544">
        <ele>572</ele>
        <time>2014-04-08T08:08:10.000Z</time>
      </trkpt>
      <trkpt lat="45.28964" lon="4.55409">
        <ele>576</ele>
        <time>2014-04-08T08:08:29.000Z</time>
      </trkpt>
      <trkpt lat="45.28964" lon="4.55407">
        <ele>575</ele>
        <time>2014-04-08T08:08:30.000Z</time>
      </trkpt>
      <trkpt lat="45.2896" lon="4.55374">
        <ele>573</ele>
        <time>2014-04-08T08:08:52.000Z</time>
      </trkpt>
      <trkpt lat="45.2896" lon="4.55373">
        <ele>573</ele>
        <time>2014-04-08T08:08:53.000Z</time>
      </trkpt>
      <trkpt lat="45.28956" lon="4.55339">
        <ele>580</ele>
        <time>2014-04-08T08:09:16.000Z</time>
      </trkpt>
      <trkpt lat="45.28955" lon="4.55338">
        <ele>581</ele>
        <time>2014-04-08T08:09:17.000Z</time>
      </trkpt>
      <trkpt lat="45.28941" lon="4.55312">
        <ele>592</ele>
        <time>2014-04-08T08:09:35.000Z</time>
      </trkpt>
      <trkpt lat="45.2894" lon="4.5531">
        <ele>592</ele>
        <time>2014-04-08T08:09:36.000Z</time>
      </trkpt>
      <trkpt lat="45.28934" lon="4.55278">
        <ele>556</ele>
        <time>2014-04-08T08:10:28.000Z</time>
      </trkpt>
      <trkpt lat="45.28933" lon="4.55277">
        <ele>555</ele>
        <time>2014-04-08T08:10:29.000Z</time>
      </trkpt>
      <trkpt lat="45.28914" lon="4.5526">
        <ele>563</ele>
        <time>2014-04-08T08:10:50.000Z</time>
      </trkpt>
      <trkpt lat="45.28913" lon="4.55259">
        <ele>564</ele>
        <time>2014-04-08T08:10:51.000Z</time>
      </trkpt>
      <trkpt lat="45.28895" lon="4.55237">
        <ele>570</ele>
        <time>2014-04-08T08:11:09.000Z</time>
      </trkpt>
      <trkpt lat="45.28894" lon="4.55236">
        <ele>570</ele>
        <time>2014-04-08T08:11:10.000Z</time>
      </trkpt>
      <trkpt lat="45.28875" lon="4.55217">
        <ele>569</ele>
        <time>2014-04-08T08:11:28.000Z</time>
      </trkpt>
      <trkpt lat="45.28874" lon="4.55217">
        <ele>569</ele>
        <time>2014-04-08T08:11:29.000Z</time>
      </trkpt>
      <trkpt lat="45.28856" lon="4.55198">
        <ele>575</ele>
        <time>2014-04-08T08:11:48.000Z</time>
      </trkpt>
      <trkpt lat="45.28854" lon="4.55197">
        <ele>575</ele>
        <time>2014-04-08T08:11:49.000Z</time>
      </trkpt>
      <trkpt lat="45.28836" lon="4.55178">
        <ele>567</ele>
        <time>2014-04-08T08:12:09.000Z</time>
      </trkpt>
      <trkpt lat="45.28834" lon="4.55176">
        <ele>567</ele>
        <time>2014-04-08T08:12:10.000Z</time>
      </trkpt>
      <trkpt lat="45.28812" lon="4.55164">
        <ele>570</ele>
        <time>2014-04-08T08:12:26.000Z</time>
      </trkpt>
      <trkpt lat="45.28811" lon="4.55162">
        <ele>570</ele>
        <time>2014-04-08T08:12:27.000Z</time>
      </trkpt>
      <trkpt lat="45.28789" lon="4.55149">
        <ele>568</ele>
        <time>2014-04-08T08:12:46.000Z</time>
      </trkpt>
      <trkpt lat="45.28788" lon="4.55147">
        <ele>569</ele>
        <time>2014-04-08T08:12:47.000Z</time>
      </trkpt>
      <trkpt lat="45.28768" lon="4.55131">
        <ele>577</ele>
        <time>2014-04-08T08:13:08.000Z</time>
      </trkpt>
      <trkpt lat="45.28768" lon="4.55129">
        <ele>577</ele>
        <time>2014-04-08T08:13:09.000Z</time>
      </trkpt>
      <trkpt lat="45.28747" lon="4.55115">
        <ele>573</ele>
        <time>2014-04-08T08:13:30.000Z</time>
      </trkpt>
      <trkpt lat="45.28746" lon="4.55115">
        <ele>574</ele>
        <time>2014-04-08T08:13:31.000Z</time>
      </trkpt>
      <trkpt lat="45.28725" lon="4.55101">
        <ele>585</ele>
        <time>2014-04-08T08:13:50.000Z</time>
      </trkpt>
      <trkpt lat="45.28724" lon="4.551">
        <ele>585</ele>
        <time>2014-04-08T08:13:51.000Z</time>
      </trkpt>
      <trkpt lat="45.28703" lon="4.55085">
        <ele>583</ele>
        <time>2014-04-08T08:14:11.000Z</time>
      </trkpt>
      <trkpt lat="45.28701" lon="4.55085">
        <ele>583</ele>
        <time>2014-04-08T08:14:12.000Z</time>
      </trkpt>
      <trkpt lat="45.28681" lon="4.55068">
        <ele>580</ele>
        <time>2014-04-08T08:14:32.000Z</time>
      </trkpt>
      <trkpt lat="45.2868" lon="4.55067">
        <ele>580</ele>
        <time>2014-04-08T08:14:33.000Z</time>
      </trkpt>
      <trkpt lat="45.28658" lon="4.55055">
        <ele>592</ele>
        <time>2014-04-08T08:14:52.000Z</time>
      </trkpt>
      <trkpt lat="45.28657" lon="4.55054">
        <ele>593</ele>
        <time>2014-04-08T08:14:53.000Z</time>
      </trkpt>
      <trkpt lat="45.28637" lon="4.5504">
        <ele>595</ele>
        <time>2014-04-08T08:15:12.000Z</time>
      </trkpt>
      <trkpt lat="45.28636" lon="4.55039">
        <ele>595</ele>
        <time>2014-04-08T08:15:13.000Z</time>
      </trkpt>
      <trkpt lat="45.28616" lon="4.55023">
        <ele>594</ele>
        <time>2014-04-08T08:15:35.000Z</time>
      </trkpt>
      <trkpt lat="45.28615" lon="4.55022">
        <ele>593</ele>
        <time>2014-04-08T08:15:36.000Z</time>
      </trkpt>
      <trkpt lat="45.28595" lon="4.55004">
        <ele>600</ele>
        <time>2014-04-08T08:15:59.000Z</time>
      </trkpt>
      <trkpt lat="45.28595" lon="4.55003">
        <ele>600</ele>
        <time>2014-04-08T08:16:00.000Z</time>
      </trkpt>
      <trkpt lat="45.2858" lon="4.54978">
        <ele>605</ele>
        <time>2014-04-08T08:16:19.000Z</time>
      </trkpt>
      <trkpt lat="45.2858" lon="4.54977">
        <ele>605</ele>
        <time>2014-04-08T08:16:20.000Z</time>
      </trkpt>
      <trkpt lat="45.28568" lon="4.54948">
        <ele>607</ele>
        <time>2014-04-08T08:16:41.000Z</time>
      </trkpt>
      <trkpt lat="45.28567" lon="4.54947">
        <ele>607</ele>
        <time>2014-04-08T08:16:42.000Z</time>
      </trkpt>
      <trkpt lat="45.28556" lon="4.54917">
        <ele>613</ele>
        <time>2014-04-08T08:17:01.000Z</time>
      </trkpt>
      <trkpt lat="45.28556" lon="4.54916">
        <ele>614</ele>
        <time>2014-04-08T08:17:02.000Z</time>
      </trkpt>
      <trkpt lat="45.28545" lon="4.54888">
        <ele>624</ele>
        <time>2014-04-08T08:17:25.000Z</time>
      </trkpt>
      <trkpt lat="45.28544" lon="4.54887">
        <ele>624</ele>
        <time>2014-04-08T08:17:26.000Z</time>
      </trkpt>
      <trkpt lat="45.28521" lon="4.54891">
        <ele>621</ele>
        <time>2014-04-08T08:17:50.000Z</time>
      </trkpt>
      <trkpt lat="45.2852" lon="4.54891">
        <ele>620</ele>
        <time>2014-04-08T08:17:51.000Z</time>
      </trkpt>
      <trkpt lat="45.285" lon="4.54911">
        <ele>619</ele>
        <time>2014-04-08T08:18:17.000Z</time>
      </trkpt>
      <trkpt lat="45.285" lon="4.54912">
        <ele>619</ele>
        <time>2014-04-08T08:18:18.000Z</time>
      </trkpt>
      <trkpt lat="45.28502" lon="4.54879">
        <ele>625</ele>
        <time>2014-04-08T08:20:03.000Z</time>
      </trkpt>
      <trkpt lat="45.28502" lon="4.54877">
        <ele>625</ele>
        <time>2014-04-08T08:20:04.000Z</time>
      </trkpt>
      <trkpt lat="45.28504" lon="4.54845">
        <ele>632</ele>
        <time>2014-04-08T08:20:28.000Z</time>
      </trkpt>
      <trkpt lat="45.28504" lon="4.54845">
        <ele>632</ele>
        <time>2014-04-08T08:20:29.000Z</time>
      </trkpt>
      <trkpt lat="45.28509" lon="4.54813">
        <ele>644</ele>
        <time>2014-04-08T08:20:54.000Z</time>
      </trkpt>
      <trkpt lat="45.28509" lon="4.54811">
        <ele>645</ele>
        <time>2014-04-08T08:20:55.000Z</time>
      </trkpt>
      <trkpt lat="45.28502" lon="4.5478">
        <ele>641</ele>
        <time>2014-04-08T08:21:17.000Z</time>
      </trkpt>
      <trkpt lat="45.28502" lon="4.54778">
        <ele>640</ele>
        <time>2014-04-08T08:21:18.000Z</time>
      </trkpt>
      <trkpt lat="45.28487" lon="4.54754">
        <ele>623</ele>
        <time>2014-04-08T08:21:39.000Z</time>
      </trkpt>
      <trkpt lat="45.28487" lon="4.54753">
        <ele>623</ele>
        <time>2014-04-08T08:21:40.000Z</time>
      </trkpt>
      <trkpt lat="45.28481" lon="4.54721">
        <ele>640</ele>
        <time>2014-04-08T08:22:08.000Z</time>
      </trkpt>
      <trkpt lat="45.28481" lon="4.5472">
        <ele>641</ele>
        <time>2014-04-08T08:22:09.000Z</time>
      </trkpt>
      <trkpt lat="45.28467" lon="4.54693">
        <ele>644</ele>
        <time>2014-04-08T08:22:32.000Z</time>
      </trkpt>
      <trkpt lat="45.28466" lon="4.54692">
        <ele>645</ele>
        <time>2014-04-08T08:22:33.000Z</time>
      </trkpt>
      <trkpt lat="45.2845" lon="4.54668">
        <ele>652</ele>
        <time>2014-04-08T08:23:02.000Z</time>
      </trkpt>
      <trkpt lat="45.2845" lon="4.54667">
        <ele>651</ele>
        <time>2014-04-08T08:23:03.000Z</time>
      </trkpt>
      <trkpt lat="45.28439" lon="4.54638">
        <ele>657</ele>
        <time>2014-04-08T08:23:31.000Z</time>
      </trkpt>
      <trkpt lat="45.28438" lon="4.54636">
        <ele>658</ele>
        <time>2014-04-08T08:23:32.000Z</time>
      </trkpt>
      <trkpt lat="45.28428" lon="4.54607">
        <ele>669</ele>
        <time>2014-04-08T08:24:03.000Z</time>
      </trkpt>
      <trkpt lat="45.28428" lon="4.54606">
        <ele>669</ele>
        <time>2014-04-08T08:24:04.000Z</time>
      </trkpt>
      <trkpt lat="45.28412" lon="4.54582">
        <ele>666</ele>
        <time>2014-04-08T08:24:34.000Z</time>
      </trkpt>
      <trkpt lat="45.28412" lon="4.54581">
        <ele>666</ele>
        <time>2014-04-08T08:24:35.000Z</time>
      </trkpt>
      <trkpt lat="45.284" lon="4.54553">
        <ele>672</ele>
        <time>2014-04-08T08:25:04.000Z</time>
      </trkpt>
      <trkpt lat="45.28399" lon="4.54552">
        <ele>672</ele>
        <time>2014-04-08T08:25:05.000Z</time>
      </trkpt>
      <trkpt lat="45.28371" lon="4.54538">
        <ele>701</ele>
        <time>2014-04-08T08:25:45.000Z</time>
      </trkpt>
      <trkpt lat="45.2837" lon="4.54539">
        <ele>702</ele>
        <time>2014-04-08T08:25:46.000Z</time>
      </trkpt>
      <trkpt lat="45.28348" lon="4.54533">
        <ele>693</ele>
        <time>2014-04-08T08:26:11.000Z</time>
      </trkpt>
      <trkpt lat="45.28347" lon="4.54532">
        <ele>692</ele>
        <time>2014-04-08T08:26:12.000Z</time>
      </trkpt>
      <trkpt lat="45.28341" lon="4.54501">
        <ele>680</ele>
        <time>2014-04-08T08:26:36.000Z</time>
      </trkpt>
      <trkpt lat="45.28341" lon="4.54499">
        <ele>679</ele>
        <time>2014-04-08T08:26:37.000Z</time>
      </trkpt>
      <trkpt lat="45.28336" lon="4.54466">
        <ele>688</ele>
        <time>2014-04-08T08:26:57.000Z</time>
      </trkpt>
      <trkpt lat="45.28336" lon="4.54465">
        <ele>688</ele>
        <time>2014-04-08T08:26:58.000Z</time>
      </trkpt>
      <trkpt lat="45.2833" lon="4.54433">
        <ele>692</ele>
        <time>2014-04-08T08:27:23.000Z</time>
      </trkpt>
      <trkpt lat="45.28329" lon="4.54432">
        <ele>692</ele>
        <time>2014-04-08T08:27:24.000Z</time>
      </trkpt>
      <trkpt lat="45.28312" lon="4.54412">
        <ele>690</ele>
        <time>2014-04-08T08:27:56.000Z</time>
      </trkpt>
      <trkpt lat="45.28312" lon="4.54412">
        <ele>691</ele>
        <time>2014-04-08T08:27:57.000Z</time>
      </trkpt>
      <trkpt lat="45.28294" lon="4.54432">
        <ele>697</ele>
        <time>2014-04-08T08:28:31.000Z</time>
      </trkpt>
      <trkpt lat="45.28294" lon="4.54433">
        <ele>697</ele>
        <time>2014-04-08T08:28:32.000Z</time>
      </trkpt>
      <trkpt lat="45.28276" lon="4.54453">
        <ele>703</ele>
        <time>2014-04-08T08:29:04.000Z</time>
      </trkpt>
      <trkpt lat="45.28275" lon="4.54454">
        <ele>703</ele>
        <time>2014-04-08T08:29:05.000Z</time>
      </trkpt>
      <trkpt lat="45.28257" lon="4.54474">
        <ele>696</ele>
        <time>2014-04-08T08:29:31.000Z</time>
      </trkpt>
      <trkpt lat="45.28257" lon="4.54475">
        <ele>696</ele>
        <time>2014-04-08T08:29:32.000Z</time>
      </trkpt>
      <trkpt lat="45.28237" lon="4.54492">
        <ele>704</ele>
        <time>2014-04-08T08:30:07.000Z</time>
      </trkpt>
      <trkpt lat="45.28236" lon="4.54492">
        <ele>705</ele>
        <time>2014-04-08T08:30:08.000Z</time>
      </trkpt>
      <trkpt lat="45.28215" lon="4.5448">
        <ele>713</ele>
        <time>2014-04-08T08:30:40.000Z</time>
      </trkpt>
      <trkpt lat="45.28214" lon="4.54479">
        <ele>713</ele>
        <time>2014-04-08T08:30:41.000Z</time>
      </trkpt>
      <trkpt lat="45.28191" lon="4.54475">
        <ele>725</ele>
        <time>2014-04-08T08:31:18.000Z</time>
      </trkpt>
      <trkpt lat="45.28191" lon="4.54475">
        <ele>725</ele>
        <time>2014-04-08T08:31:19.000Z</time>
      </trkpt>
      <trkpt lat="45.28174" lon="4.54454">
        <ele>727</ele>
        <time>2014-04-08T08:32:02.000Z</time>
      </trkpt>
      <trkpt lat="45.28173" lon="4.54453">
        <ele>727</ele>
        <time>2014-04-08T08:32:03.000Z</time>
      </trkpt>
      <trkpt lat="45.28156" lon="4.54433">
        <ele>727</ele>
        <time>2014-04-08T08:32:30.000Z</time>
      </trkpt>
      <trkpt lat="45.28156" lon="4.54432">
        <ele>727</ele>
        <time>2014-04-08T08:32:31.000Z</time>
      </trkpt>
      <trkpt lat="45.28138" lon="4.54411">
        <ele>733</ele>
        <time>2014-04-08T08:32:59.000Z</time>
      </trkpt>
      <trkpt lat="45.28137" lon="4.54411">
        <ele>733</ele>
        <time>2014-04-08T08:33:00.000Z</time>
      </trkpt>
      <trkpt lat="45.28118" lon="4.54394">
        <ele>736</ele>
        <time>2014-04-08T08:33:22.000Z</time>
      </trkpt>
      <trkpt lat="45.28117" lon="4.54393">
        <ele>736</ele>
        <time>2014-04-08T08:33:23.000Z</time>
      </trkpt>
      <trkpt lat="45.28098" lon="4.54373">
        <ele>742</ele>
        <time>2014-04-08T08:33:56.000Z</time>
      </trkpt>
      <trkpt lat="45.28098" lon="4.54373">
        <ele>742</ele>
        <time>2014-04-08T08:33:57.000Z</time>
      </trkpt>
      <trkpt lat="45.28078" lon="4.54355">
        <ele>742</ele>
        <time>2014-04-08T08:34:25.000Z</time>
      </trkpt>
      <trkpt lat="45.28077" lon="4.54354">
        <ele>742</ele>
        <time>2014-04-08T08:34:26.000Z</time>
      </trkpt>
      <trkpt lat="45.28058" lon="4.54337">
        <ele>743</ele>
        <time>2014-04-08T08:34:53.000Z</time>
      </trkpt>
      <trkpt lat="45.28057" lon="4.54336">
        <ele>743</ele>
        <time>2014-04-08T08:34:54.000Z</time>
      </trkpt>
      <trkpt lat="45.28041" lon="4.54314">
        <ele>748</ele>
        <time>2014-04-08T08:35:21.000Z</time>
      </trkpt>
      <trkpt lat="45.2804" lon="4.54313">
        <ele>748</ele>
        <time>2014-04-08T08:35:22.000Z</time>
      </trkpt>
      <trkpt lat="45.2802" lon="4.54296">
        <ele>756</ele>
        <time>2014-04-08T08:35:48.000Z</time>
      </trkpt>
      <trkpt lat="45.2802" lon="4.54296">
        <ele>756</ele>
        <time>2014-04-08T08:35:49.000Z</time>
      </trkpt>
      <trkpt lat="45.27996" lon="4.54296">
        <ele>760</ele>
        <time>2014-04-08T08:36:09.000Z</time>
      </trkpt>
      <trkpt lat="45.27996" lon="4.54297">
        <ele>760</ele>
        <time>2014-04-08T08:36:08.000Z</time>
      </trkpt>
      <trkpt lat="45.27975" lon="4.54311">
        <ele>755</ele>
        <time>2014-04-08T08:37:43.000Z</time>
      </trkpt>
      <trkpt lat="45.27974" lon="4.54311">
        <ele>755</ele>
        <time>2014-04-08T08:37:44.000Z</time>
      </trkpt>
      <trkpt lat="45.27953" lon="4.54322">
        <ele>753</ele>
        <time>2014-04-08T08:38:10.000Z</time>
      </trkpt>
      <trkpt lat="45.27952" lon="4.54322">
        <ele>753</ele>
        <time>2014-04-08T08:38:11.000Z</time>
      </trkpt>
      <trkpt lat="45.2793" lon="4.54334">
        <ele>751</ele>
        <time>2014-04-08T08:38:30.000Z</time>
      </trkpt>
      <trkpt lat="45.27929" lon="4.54335">
        <ele>752</ele>
        <time>2014-04-08T08:38:31.000Z</time>
      </trkpt>
      <trkpt lat="45.27907" lon="4.54344">
        <ele>754</ele>
        <time>2014-04-08T08:38:51.000Z</time>
      </trkpt>
      <trkpt lat="45.27906" lon="4.54345">
        <ele>754</ele>
        <time>2014-04-08T08:38:52.000Z</time>
      </trkpt>
      <trkpt lat="45.27883" lon="4.54353">
        <ele>749</ele>
        <time>2014-04-08T08:39:12.000Z</time>
      </trkpt>
      <trkpt lat="45.27881" lon="4.54353">
        <ele>750</ele>
        <time>2014-04-08T08:39:13.000Z</time>
      </trkpt>
      <trkpt lat="45.27859" lon="4.54364">
        <ele>752</ele>
        <time>2014-04-08T08:39:31.000Z</time>
      </trkpt>
      <trkpt lat="45.27858" lon="4.54365">
        <ele>752</ele>
        <time>2014-04-08T08:39:32.000Z</time>
      </trkpt>
      <trkpt lat="45.27837" lon="4.54376">
        <ele>751</ele>
        <time>2014-04-08T08:39:49.000Z</time>
      </trkpt>
      <trkpt lat="45.27836" lon="4.54376">
        <ele>750</ele>
        <time>2014-04-08T08:39:50.000Z</time>
      </trkpt>
      <trkpt lat="45.27816" lon="4.54393">
        <ele>742</ele>
        <time>2014-04-08T08:40:09.000Z</time>
      </trkpt>
      <trkpt lat="45.27815" lon="4.54394">
        <ele>742</ele>
        <time>2014-04-08T08:40:10.000Z</time>
      </trkpt>
      <trkpt lat="45.27795" lon="4.54407">
        <ele>747</ele>
        <time>2014-04-08T08:40:34.000Z</time>
      </trkpt>
      <trkpt lat="45.27794" lon="4.54408">
        <ele>747</ele>
        <time>2014-04-08T08:40:35.000Z</time>
      </trkpt>
      <trkpt lat="45.27771" lon="4.54408">
        <ele>756</ele>
        <time>2014-04-08T08:41:03.000Z</time>
      </trkpt>
      <trkpt lat="45.27771" lon="4.54408">
        <ele>756</ele>
        <time>2014-04-08T08:41:04.000Z</time>
      </trkpt>
      <trkpt lat="45.27748" lon="4.54406">
        <ele>754</ele>
        <time>2014-04-08T08:41:35.000Z</time>
      </trkpt>
      <trkpt lat="45.27747" lon="4.54406">
        <ele>754</ele>
        <time>2014-04-08T08:41:36.000Z</time>
      </trkpt>
      <trkpt lat="45.27729" lon="4.54425">
        <ele>751</ele>
        <time>2014-04-08T08:41:56.000Z</time>
      </trkpt>
      <trkpt lat="45.27728" lon="4.54426">
        <ele>752</ele>
        <time>2014-04-08T08:41:57.000Z</time>
      </trkpt>
      <trkpt lat="45.27705" lon="4.54428">
        <ele>775</ele>
        <time>2014-04-08T08:42:25.000Z</time>
      </trkpt>
      <trkpt lat="45.27704" lon="4.54427">
        <ele>778</ele>
        <time>2014-04-08T08:42:26.000Z</time>
      </trkpt>
      <trkpt lat="45.27681" lon="4.54426">
        <ele>781</ele>
        <time>2014-04-08T08:42:55.000Z</time>
      </trkpt>
      <trkpt lat="45.27681" lon="4.54426">
        <ele>781</ele>
        <time>2014-04-08T08:42:56.000Z</time>
      </trkpt>
      <trkpt lat="45.27658" lon="4.54437">
        <ele>788</ele>
        <time>2014-04-08T08:43:30.000Z</time>
      </trkpt>
      <trkpt lat="45.27658" lon="4.54437">
        <ele>787</ele>
        <time>2014-04-08T08:43:31.000Z</time>
      </trkpt>
      <trkpt lat="45.27636" lon="4.54445">
        <ele>786</ele>
        <time>2014-04-08T08:43:56.000Z</time>
      </trkpt>
      <trkpt lat="45.27634" lon="4.54445">
        <ele>787</ele>
        <time>2014-04-08T08:43:57.000Z</time>
      </trkpt>
      <trkpt lat="45.27615" lon="4.5446">
        <ele>783</ele>
        <time>2014-04-08T08:44:40.000Z</time>
      </trkpt>
      <trkpt lat="45.27615" lon="4.5446">
        <ele>782</ele>
        <time>2014-04-08T08:44:41.000Z</time>
      </trkpt>
      <trkpt lat="45.27593" lon="4.54475">
        <ele>800</ele>
        <time>2014-04-08T08:45:15.000Z</time>
      </trkpt>
      <trkpt lat="45.27592" lon="4.54476">
        <ele>801</ele>
        <time>2014-04-08T08:45:16.000Z</time>
      </trkpt>
      <trkpt lat="45.27573" lon="4.54497">
        <ele>790</ele>
        <time>2014-04-08T08:45:43.000Z</time>
      </trkpt>
      <trkpt lat="45.27573" lon="4.54498">
        <ele>790</ele>
        <time>2014-04-08T08:45:44.000Z</time>
      </trkpt>
      <trkpt lat="45.27549" lon="4.54493">
        <ele>801</ele>
        <time>2014-04-08T08:46:14.000Z</time>
      </trkpt>
      <trkpt lat="45.27548" lon="4.54493">
        <ele>802</ele>
        <time>2014-04-08T08:46:15.000Z</time>
      </trkpt>
      <trkpt lat="45.27527" lon="4.54478">
        <ele>809</ele>
        <time>2014-04-08T08:46:42.000Z</time>
      </trkpt>
      <trkpt lat="45.27527" lon="4.54477">
        <ele>810</ele>
        <time>2014-04-08T08:46:43.000Z</time>
      </trkpt>
      <trkpt lat="45.27508" lon="4.54457">
        <ele>822</ele>
        <time>2014-04-08T08:47:05.000Z</time>
      </trkpt>
      <trkpt lat="45.27508" lon="4.54456">
        <ele>821</ele>
        <time>2014-04-08T08:47:06.000Z</time>
      </trkpt>
      <trkpt lat="45.27488" lon="4.54438">
        <ele>822</ele>
        <time>2014-04-08T08:47:26.000Z</time>
      </trkpt>
      <trkpt lat="45.27487" lon="4.54438">
        <ele>823</ele>
        <time>2014-04-08T08:47:27.000Z</time>
      </trkpt>
      <trkpt lat="45.27465" lon="4.54426">
        <ele>810</ele>
        <time>2014-04-08T08:47:49.000Z</time>
      </trkpt>
      <trkpt lat="45.27464" lon="4.54424">
        <ele>809</ele>
        <time>2014-04-08T08:47:50.000Z</time>
      </trkpt>
      <trkpt lat="45.27446" lon="4.54401">
        <ele>812</ele>
        <time>2014-04-08T08:48:17.000Z</time>
      </trkpt>
      <trkpt lat="45.27445" lon="4.544">
        <ele>812</ele>
        <time>2014-04-08T08:48:18.000Z</time>
      </trkpt>
      <trkpt lat="45.27428" lon="4.54377">
        <ele>818</ele>
        <time>2014-04-08T08:48:42.000Z</time>
      </trkpt>
      <trkpt lat="45.27428" lon="4.54376">
        <ele>818</ele>
        <time>2014-04-08T08:48:43.000Z</time>
      </trkpt>
      <trkpt lat="45.27414" lon="4.5435">
        <ele>809</ele>
        <time>2014-04-08T08:49:09.000Z</time>
      </trkpt>
      <trkpt lat="45.27413" lon="4.54349">
        <ele>808</ele>
        <time>2014-04-08T08:49:10.000Z</time>
      </trkpt>
      <trkpt lat="45.27399" lon="4.54324">
        <ele>814</ele>
        <time>2014-04-08T08:49:30.000Z</time>
      </trkpt>
      <trkpt lat="45.27398" lon="4.54322">
        <ele>815</ele>
        <time>2014-04-08T08:49:31.000Z</time>
      </trkpt>
      <trkpt lat="45.27377" lon="4.5431">
        <ele>822</ele>
        <time>2014-04-08T08:50:04.000Z</time>
      </trkpt>
      <trkpt lat="45.27376" lon="4.54309">
        <ele>822</ele>
        <time>2014-04-08T08:50:05.000Z</time>
      </trkpt>
      <trkpt lat="45.27368" lon="4.5434">
        <ele>830</ele>
        <time>2014-04-08T08:51:00.000Z</time>
      </trkpt>
      <trkpt lat="45.27368" lon="4.54341">
        <ele>830</ele>
        <time>2014-04-08T08:51:01.000Z</time>
      </trkpt>
      <trkpt lat="45.27369" lon="4.54373">
        <ele>838</ele>
        <time>2014-04-08T08:51:25.000Z</time>
      </trkpt>
      <trkpt lat="45.27368" lon="4.54374">
        <ele>839</ele>
        <time>2014-04-08T08:51:26.000Z</time>
      </trkpt>
      <trkpt lat="45.27346" lon="4.54367">
        <ele>841</ele>
        <time>2014-04-08T08:51:51.000Z</time>
      </trkpt>
      <trkpt lat="45.27345" lon="4.54366">
        <ele>840</ele>
        <time>2014-04-08T08:51:52.000Z</time>
      </trkpt>
      <trkpt lat="45.27324" lon="4.54357">
        <ele>843</ele>
        <time>2014-04-08T08:52:14.000Z</time>
      </trkpt>
      <trkpt lat="45.27323" lon="4.54357">
        <ele>843</ele>
        <time>2014-04-08T08:52:15.000Z</time>
      </trkpt>
      <trkpt lat="45.27301" lon="4.54349">
        <ele>850</ele>
        <time>2014-04-08T08:52:39.000Z</time>
      </trkpt>
      <trkpt lat="45.27299" lon="4.54349">
        <ele>851</ele>
        <time>2014-04-08T08:52:40.000Z</time>
      </trkpt>
      <trkpt lat="45.27277" lon="4.54345">
        <ele>848</ele>
        <time>2014-04-08T08:53:10.000Z</time>
      </trkpt>
      <trkpt lat="45.27276" lon="4.54345">
        <ele>848</ele>
        <time>2014-04-08T08:53:11.000Z</time>
      </trkpt>
      <trkpt lat="45.27254" lon="4.54357">
        <ele>856</ele>
        <time>2014-04-08T08:53:43.000Z</time>
      </trkpt>
      <trkpt lat="45.27254" lon="4.54358">
        <ele>856</ele>
        <time>2014-04-08T08:53:44.000Z</time>
      </trkpt>
      <trkpt lat="45.27251" lon="4.5439">
        <ele>859</ele>
        <time>2014-04-08T08:58:17.000Z</time>
      </trkpt>
      <trkpt lat="45.27251" lon="4.54391">
        <ele>859</ele>
        <time>2014-04-08T08:58:18.000Z</time>
      </trkpt>
      <trkpt lat="45.27229" lon="4.54383">
        <ele>870</ele>
        <time>2014-04-08T08:58:53.000Z</time>
      </trkpt>
      <trkpt lat="45.27228" lon="4.54382">
        <ele>870</ele>
        <time>2014-04-08T08:58:54.000Z</time>
      </trkpt>
      <trkpt lat="45.27208" lon="4.54365">
        <ele>867</ele>
        <time>2014-04-08T08:59:19.000Z</time>
      </trkpt>
      <trkpt lat="45.27207" lon="4.54364">
        <ele>868</ele>
        <time>2014-04-08T08:59:20.000Z</time>
      </trkpt>
      <trkpt lat="45.27187" lon="4.54349">
        <ele>868</ele>
        <time>2014-04-08T08:59:47.000Z</time>
      </trkpt>
      <trkpt lat="45.27187" lon="4.54348">
        <ele>868</ele>
        <time>2014-04-08T08:59:48.000Z</time>
      </trkpt>
      <trkpt lat="45.27169" lon="4.54326">
        <ele>870</ele>
        <time>2014-04-08T09:00:12.000Z</time>
      </trkpt>
      <trkpt lat="45.27168" lon="4.54325">
        <ele>870</ele>
        <time>2014-04-08T09:00:13.000Z</time>
      </trkpt>
      <trkpt lat="45.27151" lon="4.54304">
        <ele>871</ele>
        <time>2014-04-08T09:00:37.000Z</time>
      </trkpt>
      <trkpt lat="45.27151" lon="4.54303">
        <ele>871</ele>
        <time>2014-04-08T09:00:38.000Z</time>
      </trkpt>
      <trkpt lat="45.27129" lon="4.54292">
        <ele>882</ele>
        <time>2014-04-08T09:01:54.000Z</time>
      </trkpt>
      <trkpt lat="45.27129" lon="4.54292">
        <ele>882</ele>
        <time>2014-04-08T09:01:55.000Z</time>
      </trkpt>
      <trkpt lat="45.27114" lon="4.54266">
        <ele>886</ele>
        <time>2014-04-08T09:02:29.000Z</time>
      </trkpt>
      <trkpt lat="45.27114" lon="4.54265">
        <ele>886</ele>
        <time>2014-04-08T09:02:30.000Z</time>
      </trkpt>
      <trkpt lat="45.27098" lon="4.54243">
        <ele>891</ele>
        <time>2014-04-08T09:02:54.000Z</time>
      </trkpt>
      <trkpt lat="45.27097" lon="4.54242">
        <ele>891</ele>
        <time>2014-04-08T09:02:55.000Z</time>
      </trkpt>
      <trkpt lat="45.2708" lon="4.54221">
        <ele>889</ele>
        <time>2014-04-08T09:03:20.000Z</time>
      </trkpt>
      <trkpt lat="45.27079" lon="4.5422">
        <ele>889</ele>
        <time>2014-04-08T09:03:21.000Z</time>
      </trkpt>
      <trkpt lat="45.27086" lon="4.54189">
        <ele>907</ele>
        <time>2014-04-08T09:03:48.000Z</time>
      </trkpt>
      <trkpt lat="45.27086" lon="4.54187">
        <ele>908</ele>
        <time>2014-04-08T09:03:49.000Z</time>
      </trkpt>
      <trkpt lat="45.27074" lon="4.54159">
        <ele>903</ele>
        <time>2014-04-08T09:04:10.000Z</time>
      </trkpt>
      <trkpt lat="45.27073" lon="4.54158">
        <ele>903</ele>
        <time>2014-04-08T09:04:11.000Z</time>
      </trkpt>
      <trkpt lat="45.27059" lon="4.54132">
        <ele>902</ele>
        <time>2014-04-08T09:04:35.000Z</time>
      </trkpt>
      <trkpt lat="45.27058" lon="4.54131">
        <ele>902</ele>
        <time>2014-04-08T09:04:36.000Z</time>
      </trkpt>
      <trkpt lat="45.27042" lon="4.54109">
        <ele>905</ele>
        <time>2014-04-08T09:05:02.000Z</time>
      </trkpt>
      <trkpt lat="45.2704" lon="4.54108">
        <ele>905</ele>
        <time>2014-04-08T09:05:03.000Z</time>
      </trkpt>
      <trkpt lat="45.27018" lon="4.54109">
        <ele>904</ele>
        <time>2014-04-08T09:05:35.000Z</time>
      </trkpt>
      <trkpt lat="45.27017" lon="4.5411">
        <ele>904</ele>
        <time>2014-04-08T09:05:36.000Z</time>
      </trkpt>
      <trkpt lat="45.27005" lon="4.54138">
        <ele>910</ele>
        <time>2014-04-08T09:06:07.000Z</time>
      </trkpt>
      <trkpt lat="45.27005" lon="4.54139">
        <ele>911</ele>
        <time>2014-04-08T09:06:08.000Z</time>
      </trkpt>
      <trkpt lat="45.27002" lon="4.54172">
        <ele>917</ele>
        <time>2014-04-08T09:06:34.000Z</time>
      </trkpt>
      <trkpt lat="45.27002" lon="4.54173">
        <ele>917</ele>
        <time>2014-04-08T09:06:35.000Z</time>
      </trkpt>
      <trkpt lat="45.2699" lon="4.54201">
        <ele>919</ele>
        <time>2014-04-08T09:07:06.000Z</time>
      </trkpt>
      <trkpt lat="45.26989" lon="4.54201">
        <ele>919</ele>
        <time>2014-04-08T09:07:07.000Z</time>
      </trkpt>
      <trkpt lat="45.26976" lon="4.54228">
        <ele>924</ele>
        <time>2014-04-08T09:07:38.000Z</time>
      </trkpt>
      <trkpt lat="45.26976" lon="4.54229">
        <ele>923</ele>
        <time>2014-04-08T09:07:39.000Z</time>
      </trkpt>
      <trkpt lat="45.26957" lon="4.54248">
        <ele>926</ele>
        <time>2014-04-08T09:08:08.000Z</time>
      </trkpt>
      <trkpt lat="45.26957" lon="4.54249">
        <ele>927</ele>
        <time>2014-04-08T09:08:09.000Z</time>
      </trkpt>
      <trkpt lat="45.26939" lon="4.54268">
        <ele>933</ele>
        <time>2014-04-08T09:08:45.000Z</time>
      </trkpt>
      <trkpt lat="45.26938" lon="4.54269">
        <ele>933</ele>
        <time>2014-04-08T09:08:46.000Z</time>
      </trkpt>
      <trkpt lat="45.26917" lon="4.5428">
        <ele>942</ele>
        <time>2014-04-08T09:09:22.000Z</time>
      </trkpt>
      <trkpt lat="45.26916" lon="4.5428">
        <ele>943</ele>
        <time>2014-04-08T09:09:23.000Z</time>
      </trkpt>
      <trkpt lat="45.26895" lon="4.54267">
        <ele>945</ele>
        <time>2014-04-08T09:09:55.000Z</time>
      </trkpt>
      <trkpt lat="45.26894" lon="4.54267">
        <ele>945</ele>
        <time>2014-04-08T09:09:56.000Z</time>
      </trkpt>
      <trkpt lat="45.26873" lon="4.54254">
        <ele>949</ele>
        <time>2014-04-08T09:10:20.000Z</time>
      </trkpt>
      <trkpt lat="45.26872" lon="4.54254">
        <ele>949</ele>
        <time>2014-04-08T09:10:21.000Z</time>
      </trkpt>
      <trkpt lat="45.2685" lon="4.54248">
        <ele>950</ele>
        <time>2014-04-08T09:10:53.000Z</time>
      </trkpt>
      <trkpt lat="45.2685" lon="4.54248">
        <ele>951</ele>
        <time>2014-04-08T09:10:54.000Z</time>
      </trkpt>
      <trkpt lat="45.26831" lon="4.54265">
        <ele>957</ele>
        <time>2014-04-08T09:11:37.000Z</time>
      </trkpt>
      <trkpt lat="45.2683" lon="4.54266">
        <ele>957</ele>
        <time>2014-04-08T09:11:38.000Z</time>
      </trkpt>
      <trkpt lat="45.26809" lon="4.54279">
        <ele>969</ele>
        <time>2014-04-08T09:12:25.000Z</time>
      </trkpt>
      <trkpt lat="45.26809" lon="4.54279">
        <ele>969</ele>
        <time>2014-04-08T09:12:26.000Z</time>
      </trkpt>
      <trkpt lat="45.268" lon="4.54308">
        <ele>971</ele>
        <time>2014-04-08T09:12:59.000Z</time>
      </trkpt>
      <trkpt lat="45.268" lon="4.54309">
        <ele>971</ele>
        <time>2014-04-08T09:13:00.000Z</time>
      </trkpt>
      <trkpt lat="45.26782" lon="4.54329">
        <ele>972</ele>
        <time>2014-04-08T09:13:29.000Z</time>
      </trkpt>
      <trkpt lat="45.26781" lon="4.54329">
        <ele>972</ele>
        <time>2014-04-08T09:13:30.000Z</time>
      </trkpt>
      <trkpt lat="45.26759" lon="4.54334">
        <ele>975</ele>
        <time>2014-04-08T09:19:34.000Z</time>
      </trkpt>
      <trkpt lat="45.26758" lon="4.54335">
        <ele>976</ele>
        <time>2014-04-08T09:19:35.000Z</time>
      </trkpt>
      <trkpt lat="45.26738" lon="4.54349">
        <ele>980</ele>
        <time>2014-04-08T09:20:02.000Z</time>
      </trkpt>
      <trkpt lat="45.26737" lon="4.54349">
        <ele>980</ele>
        <time>2014-04-08T09:20:03.000Z</time>
      </trkpt>
      <trkpt lat="45.26716" lon="4.54331">
        <ele>978</ele>
        <time>2014-04-08T09:20:39.000Z</time>
      </trkpt>
      <trkpt lat="45.26717" lon="4.5433">
        <ele>978</ele>
        <time>2014-04-08T09:20:40.000Z</time>
      </trkpt>
      <trkpt lat="45.26735" lon="4.5435">
        <ele>989</ele>
        <time>2014-04-08T09:41:09.000Z</time>
      </trkpt>
      <trkpt lat="45.26736" lon="4.54349">
        <ele>989</ele>
        <time>2014-04-08T09:41:10.000Z</time>
      </trkpt>
      <trkpt lat="45.26757" lon="4.54338">
        <ele>985</ele>
        <time>2014-04-08T09:41:52.000Z</time>
      </trkpt>
      <trkpt lat="45.26757" lon="4.54337">
        <ele>985</ele>
        <time>2014-04-08T09:41:53.000Z</time>
      </trkpt>
      <trkpt lat="45.26768" lon="4.54307">
        <ele>984</ele>
        <time>2014-04-08T09:42:15.000Z</time>
      </trkpt>
      <trkpt lat="45.26768" lon="4.54306">
        <ele>984</ele>
        <time>2014-04-08T09:42:16.000Z</time>
      </trkpt>
      <trkpt lat="45.26762" lon="4.54275">
        <ele>979</ele>
        <time>2014-04-08T09:42:34.000Z</time>
      </trkpt>
      <trkpt lat="45.26761" lon="4.54273">
        <ele>978</ele>
        <time>2014-04-08T09:42:35.000Z</time>
      </trkpt>
      <trkpt lat="45.26747" lon="4.54248">
        <ele>970</ele>
        <time>2014-04-08T09:42:56.000Z</time>
      </trkpt>
      <trkpt lat="45.26746" lon="4.54247">
        <ele>970</ele>
        <time>2014-04-08T09:42:57.000Z</time>
      </trkpt>
      <trkpt lat="45.26723" lon="4.54243">
        <ele>974</ele>
        <time>2014-04-08T09:43:24.000Z</time>
      </trkpt>
      <trkpt lat="45.26722" lon="4.54243">
        <ele>974</ele>
        <time>2014-04-08T09:43:25.000Z</time>
      </trkpt>
      <trkpt lat="45.26701" lon="4.54258">
        <ele>981</ele>
        <time>2014-04-08T09:43:56.000Z</time>
      </trkpt>
      <trkpt lat="45.267" lon="4.5426">
        <ele>982</ele>
        <time>2014-04-08T09:43:57.000Z</time>
      </trkpt>
      <trkpt lat="45.26692" lon="4.5429">
        <ele>982</ele>
        <time>2014-04-08T09:44:17.000Z</time>
      </trkpt>
      <trkpt lat="45.26692" lon="4.54292">
        <ele>982</ele>
        <time>2014-04-08T09:44:18.000Z</time>
      </trkpt>
      <trkpt lat="45.26685" lon="4.54324">
        <ele>980</ele>
        <time>2014-04-08T09:44:39.000Z</time>
      </trkpt>
      <trkpt lat="45.26684" lon="4.54325">
        <ele>980</ele>
        <time>2014-04-08T09:44:40.000Z</time>
      </trkpt>
      <trkpt lat="45.26663" lon="4.54339">
        <ele>981</ele>
        <time>2014-04-08T09:44:59.000Z</time>
      </trkpt>
      <trkpt lat="45.26662" lon="4.54339">
        <ele>981</ele>
        <time>2014-04-08T09:45:00.000Z</time>
      </trkpt>
      <trkpt lat="45.26642" lon="4.54356">
        <ele>980</ele>
        <time>2014-04-08T09:45:19.000Z</time>
      </trkpt>
      <trkpt lat="45.26641" lon="4.54357">
        <ele>980</ele>
        <time>2014-04-08T09:45:20.000Z</time>
      </trkpt>
      <trkpt lat="45.26622" lon="4.54376">
        <ele>984</ele>
        <time>2014-04-08T09:45:50.000Z</time>
      </trkpt>
      <trkpt lat="45.26622" lon="4.54376">
        <ele>985</ele>
        <time>2014-04-08T09:45:51.000Z</time>
      </trkpt>
      <trkpt lat="45.26607" lon="4.54402">
        <ele>982</ele>
        <time>2014-04-08T09:46:19.000Z</time>
      </trkpt>
      <trkpt lat="45.26606" lon="4.54403">
        <ele>982</ele>
        <time>2014-04-08T09:46:20.000Z</time>
      </trkpt>
      <trkpt lat="45.26594" lon="4.5443">
        <ele>983</ele>
        <time>2014-04-08T09:46:39.000Z</time>
      </trkpt>
      <trkpt lat="45.26593" lon="4.54432">
        <ele>983</ele>
        <time>2014-04-08T09:46:40.000Z</time>
      </trkpt>
      <trkpt lat="45.26585" lon="4.54463">
        <ele>984</ele>
        <time>2014-04-08T09:47:00.000Z</time>
      </trkpt>
      <trkpt lat="45.26585" lon="4.54464">
        <ele>984</ele>
        <time>2014-04-08T09:47:01.000Z</time>
      </trkpt>
      <trkpt lat="45.26585" lon="4.54498">
        <ele>982</ele>
        <time>2014-04-08T09:47:20.000Z</time>
      </trkpt>
      <trkpt lat="45.26585" lon="4.545">
        <ele>982</ele>
        <time>2014-04-08T09:47:21.000Z</time>
      </trkpt>
      <trkpt lat="45.26579" lon="4.54531">
        <ele>982</ele>
        <time>2014-04-08T09:47:36.000Z</time>
      </trkpt>
      <trkpt lat="45.26579" lon="4.54533">
        <ele>982</ele>
        <time>2014-04-08T09:47:37.000Z</time>
      </trkpt>
      <trkpt lat="45.26569" lon="4.54563">
        <ele>987</ele>
        <time>2014-04-08T09:47:56.000Z</time>
      </trkpt>
      <trkpt lat="45.26568" lon="4.54564">
        <ele>987</ele>
        <time>2014-04-08T09:47:57.000Z</time>
      </trkpt>
      <trkpt lat="45.26566" lon="4.54597">
        <ele>988</ele>
        <time>2014-04-08T09:48:17.000Z</time>
      </trkpt>
      <trkpt lat="45.26566" lon="4.54598">
        <ele>988</ele>
        <time>2014-04-08T09:48:18.000Z</time>
      </trkpt>
      <trkpt lat="45.26564" lon="4.54631">
        <ele>987</ele>
        <time>2014-04-08T09:48:35.000Z</time>
      </trkpt>
      <trkpt lat="45.26564" lon="4.54633">
        <ele>987</ele>
        <time>2014-04-08T09:48:36.000Z</time>
      </trkpt>
      <trkpt lat="45.26568" lon="4.54664">
        <ele>987</ele>
        <time>2014-04-08T09:48:54.000Z</time>
      </trkpt>
      <trkpt lat="45.26568" lon="4.54666">
        <ele>987</ele>
        <time>2014-04-08T09:48:55.000Z</time>
      </trkpt>
      <trkpt lat="45.26572" lon="4.54698">
        <ele>984</ele>
        <time>2014-04-08T09:49:14.000Z</time>
      </trkpt>
      <trkpt lat="45.26572" lon="4.547">
        <ele>984</ele>
        <time>2014-04-08T09:49:15.000Z</time>
      </trkpt>
      <trkpt lat="45.26578" lon="4.54732">
        <ele>986</ele>
        <time>2014-04-08T09:49:36.000Z</time>
      </trkpt>
      <trkpt lat="45.26578" lon="4.54734">
        <ele>986</ele>
        <time>2014-04-08T09:49:37.000Z</time>
      </trkpt>
      <trkpt lat="45.26585" lon="4.54766">
        <ele>983</ele>
        <time>2014-04-08T09:49:55.000Z</time>
      </trkpt>
      <trkpt lat="45.26585" lon="4.54767">
        <ele>983</ele>
        <time>2014-04-08T09:49:56.000Z</time>
      </trkpt>
      <trkpt lat="45.26598" lon="4.54795">
        <ele>980</ele>
        <time>2014-04-08T09:50:15.000Z</time>
      </trkpt>
      <trkpt lat="45.26599" lon="4.54796">
        <ele>979</ele>
        <time>2014-04-08T09:50:16.000Z</time>
      </trkpt>
      <trkpt lat="45.26615" lon="4.54821">
        <ele>978</ele>
        <time>2014-04-08T09:50:36.000Z</time>
      </trkpt>
      <trkpt lat="45.26616" lon="4.54822">
        <ele>978</ele>
        <time>2014-04-08T09:50:37.000Z</time>
      </trkpt>
      <trkpt lat="45.26631" lon="4.54847">
        <ele>979</ele>
        <time>2014-04-08T09:50:55.000Z</time>
      </trkpt>
      <trkpt lat="45.26632" lon="4.54849">
        <ele>979</ele>
        <time>2014-04-08T09:50:56.000Z</time>
      </trkpt>
      <trkpt lat="45.26646" lon="4.54875">
        <ele>977</ele>
        <time>2014-04-08T09:51:16.000Z</time>
      </trkpt>
      <trkpt lat="45.26646" lon="4.54877">
        <ele>976</ele>
        <time>2014-04-08T09:51:17.000Z</time>
      </trkpt>
      <trkpt lat="45.26659" lon="4.54905">
        <ele>972</ele>
        <time>2014-04-08T09:51:41.000Z</time>
      </trkpt>
      <trkpt lat="45.26659" lon="4.54906">
        <ele>972</ele>
        <time>2014-04-08T09:51:42.000Z</time>
      </trkpt>
      <trkpt lat="45.26668" lon="4.54936">
        <ele>971</ele>
        <time>2014-04-08T09:52:00.000Z</time>
      </trkpt>
      <trkpt lat="45.26669" lon="4.54938">
        <ele>971</ele>
        <time>2014-04-08T09:52:01.000Z</time>
      </trkpt>
      <trkpt lat="45.26684" lon="4.54962">
        <ele>969</ele>
        <time>2014-04-08T09:52:21.000Z</time>
      </trkpt>
      <trkpt lat="45.26685" lon="4.54964">
        <ele>969</ele>
        <time>2014-04-08T09:52:22.000Z</time>
      </trkpt>
      <trkpt lat="45.26698" lon="4.5499">
        <ele>966</ele>
        <time>2014-04-08T09:52:40.000Z</time>
      </trkpt>
      <trkpt lat="45.26699" lon="4.54992">
        <ele>967</ele>
        <time>2014-04-08T09:52:41.000Z</time>
      </trkpt>
      <trkpt lat="45.26711" lon="4.5502">
        <ele>971</ele>
        <time>2014-04-08T09:53:02.000Z</time>
      </trkpt>
      <trkpt lat="45.26711" lon="4.55021">
        <ele>971</ele>
        <time>2014-04-08T09:53:03.000Z</time>
      </trkpt>
      <trkpt lat="45.26726" lon="4.55048">
        <ele>966</ele>
        <time>2014-04-08T09:53:30.000Z</time>
      </trkpt>
      <trkpt lat="45.26727" lon="4.55048">
        <ele>966</ele>
        <time>2014-04-08T09:53:31.000Z</time>
      </trkpt>
      <trkpt lat="45.26744" lon="4.5507">
        <ele>962</ele>
        <time>2014-04-08T09:53:54.000Z</time>
      </trkpt>
      <trkpt lat="45.26744" lon="4.55072">
        <ele>961</ele>
        <time>2014-04-08T09:53:55.000Z</time>
      </trkpt>
      <trkpt lat="45.26754" lon="4.551">
        <ele>949</ele>
        <time>2014-04-08T09:54:14.000Z</time>
      </trkpt>
      <trkpt lat="45.26755" lon="4.55102">
        <ele>949</ele>
        <time>2014-04-08T09:54:15.000Z</time>
      </trkpt>
      <trkpt lat="45.26769" lon="4.55128">
        <ele>957</ele>
        <time>2014-04-08T09:54:34.000Z</time>
      </trkpt>
      <trkpt lat="45.2677" lon="4.55129">
        <ele>957</ele>
        <time>2014-04-08T09:54:35.000Z</time>
      </trkpt>
      <trkpt lat="45.26783" lon="4.55157">
        <ele>950</ele>
        <time>2014-04-08T09:54:52.000Z</time>
      </trkpt>
      <trkpt lat="45.26783" lon="4.55159">
        <ele>950</ele>
        <time>2014-04-08T09:54:53.000Z</time>
      </trkpt>
      <trkpt lat="45.26795" lon="4.55188">
        <ele>943</ele>
        <time>2014-04-08T09:55:09.000Z</time>
      </trkpt>
      <trkpt lat="45.26796" lon="4.55189">
        <ele>942</ele>
        <time>2014-04-08T09:55:10.000Z</time>
      </trkpt>
      <trkpt lat="45.26809" lon="4.55219">
        <ele>940</ele>
        <time>2014-04-08T09:55:28.000Z</time>
      </trkpt>
      <trkpt lat="45.26809" lon="4.55221">
        <ele>939</ele>
        <time>2014-04-08T09:55:29.000Z</time>
      </trkpt>
      <trkpt lat="45.2682" lon="4.55248">
        <ele>940</ele>
        <time>2014-04-08T09:55:45.000Z</time>
      </trkpt>
      <trkpt lat="45.26821" lon="4.55249">
        <ele>941</ele>
        <time>2014-04-08T09:55:46.000Z</time>
      </trkpt>
      <trkpt lat="45.26834" lon="4.55275">
        <ele>936</ele>
        <time>2014-04-08T09:56:05.000Z</time>
      </trkpt>
      <trkpt lat="45.26835" lon="4.55277">
        <ele>936</ele>
        <time>2014-04-08T09:56:06.000Z</time>
      </trkpt>
      <trkpt lat="45.26846" lon="4.55305">
        <ele>933</ele>
        <time>2014-04-08T09:56:24.000Z</time>
      </trkpt>
      <trkpt lat="45.26846" lon="4.55308">
        <ele>933</ele>
        <time>2014-04-08T09:56:25.000Z</time>
      </trkpt>
      <trkpt lat="45.26857" lon="4.55336">
        <ele>932</ele>
        <time>2014-04-08T09:56:41.000Z</time>
      </trkpt>
      <trkpt lat="45.26858" lon="4.55337">
        <ele>932</ele>
        <time>2014-04-08T09:56:42.000Z</time>
      </trkpt>
      <trkpt lat="45.2687" lon="4.55365">
        <ele>934</ele>
        <time>2014-04-08T09:57:00.000Z</time>
      </trkpt>
      <trkpt lat="45.2687" lon="4.55367">
        <ele>934</ele>
        <time>2014-04-08T09:57:01.000Z</time>
      </trkpt>
      <trkpt lat="45.26888" lon="4.55389">
        <ele>931</ele>
        <time>2014-04-08T09:57:20.000Z</time>
      </trkpt>
      <trkpt lat="45.26889" lon="4.55391">
        <ele>931</ele>
        <time>2014-04-08T09:57:21.000Z</time>
      </trkpt>
      <trkpt lat="45.26905" lon="4.55414">
        <ele>934</ele>
        <time>2014-04-08T09:57:37.000Z</time>
      </trkpt>
      <trkpt lat="45.26905" lon="4.55415">
        <ele>934</ele>
        <time>2014-04-08T09:57:38.000Z</time>
      </trkpt>
      <trkpt lat="45.26917" lon="4.55443">
        <ele>934</ele>
        <time>2014-04-08T09:57:58.000Z</time>
      </trkpt>
      <trkpt lat="45.26918" lon="4.55445">
        <ele>934</ele>
        <time>2014-04-08T09:57:59.000Z</time>
      </trkpt>
      <trkpt lat="45.26928" lon="4.55476">
        <ele>936</ele>
        <time>2014-04-08T09:58:19.000Z</time>
      </trkpt>
      <trkpt lat="45.26929" lon="4.55477">
        <ele>936</ele>
        <time>2014-04-08T09:58:20.000Z</time>
      </trkpt>
      <trkpt lat="45.26945" lon="4.555">
        <ele>931</ele>
        <time>2014-04-08T09:58:40.000Z</time>
      </trkpt>
      <trkpt lat="45.26945" lon="4.55501">
        <ele>931</ele>
        <time>2014-04-08T09:58:41.000Z</time>
      </trkpt>
      <trkpt lat="45.26962" lon="4.55523">
        <ele>932</ele>
        <time>2014-04-08T09:59:00.000Z</time>
      </trkpt>
      <trkpt lat="45.26964" lon="4.55524">
        <ele>932</ele>
        <time>2014-04-08T09:59:01.000Z</time>
      </trkpt>
      <trkpt lat="45.26984" lon="4.5554">
        <ele>932</ele>
        <time>2014-04-08T09:59:19.000Z</time>
      </trkpt>
      <trkpt lat="45.26985" lon="4.55541">
        <ele>932</ele>
        <time>2014-04-08T09:59:20.000Z</time>
      </trkpt>
      <trkpt lat="45.27002" lon="4.55564">
        <ele>932</ele>
        <time>2014-04-08T09:59:38.000Z</time>
      </trkpt>
      <trkpt lat="45.27003" lon="4.55565">
        <ele>932</ele>
        <time>2014-04-08T09:59:39.000Z</time>
      </trkpt>
      <trkpt lat="45.2701" lon="4.55596">
        <ele>923</ele>
        <time>2014-04-08T10:00:00.000Z</time>
      </trkpt>
      <trkpt lat="45.2701" lon="4.55598">
        <ele>922</ele>
        <time>2014-04-08T10:00:01.000Z</time>
      </trkpt>
      <trkpt lat="45.27007" lon="4.5563">
        <ele>918</ele>
        <time>2014-04-08T10:00:18.000Z</time>
      </trkpt>
      <trkpt lat="45.27007" lon="4.55632">
        <ele>918</ele>
        <time>2014-04-08T10:00:19.000Z</time>
      </trkpt>
      <trkpt lat="45.27007" lon="4.55664">
        <ele>919</ele>
        <time>2014-04-08T10:00:38.000Z</time>
      </trkpt>
      <trkpt lat="45.27008" lon="4.55665">
        <ele>918</ele>
        <time>2014-04-08T10:00:39.000Z</time>
      </trkpt>
      <trkpt lat="45.27008" lon="4.55697">
        <ele>912</ele>
        <time>2014-04-08T10:01:06.000Z</time>
      </trkpt>
      <trkpt lat="45.27008" lon="4.55698">
        <ele>912</ele>
        <time>2014-04-08T10:01:07.000Z</time>
      </trkpt>
      <trkpt lat="45.27006" lon="4.55731">
        <ele>902</ele>
        <time>2014-04-08T10:01:36.000Z</time>
      </trkpt>
      <trkpt lat="45.27006" lon="4.55732">
        <ele>902</ele>
        <time>2014-04-08T10:01:37.000Z</time>
      </trkpt>
      <trkpt lat="45.27007" lon="4.55765">
        <ele>896</ele>
        <time>2014-04-08T10:02:04.000Z</time>
      </trkpt>
      <trkpt lat="45.27007" lon="4.55767">
        <ele>896</ele>
        <time>2014-04-08T10:02:05.000Z</time>
      </trkpt>
      <trkpt lat="45.27003" lon="4.558">
        <ele>892</ele>
        <time>2014-04-08T10:02:25.000Z</time>
      </trkpt>
      <trkpt lat="45.27002" lon="4.55802">
        <ele>892</ele>
        <time>2014-04-08T10:02:26.000Z</time>
      </trkpt>
      <trkpt lat="45.26993" lon="4.55832">
        <ele>891</ele>
        <time>2014-04-08T10:02:40.000Z</time>
      </trkpt>
      <trkpt lat="45.26992" lon="4.55833">
        <ele>891</ele>
        <time>2014-04-08T10:02:41.000Z</time>
      </trkpt>
      <trkpt lat="45.26984" lon="4.55864">
        <ele>890</ele>
        <time>2014-04-08T10:03:02.000Z</time>
      </trkpt>
      <trkpt lat="45.26983" lon="4.55865">
        <ele>890</ele>
        <time>2014-04-08T10:03:03.000Z</time>
      </trkpt>
      <trkpt lat="45.2698" lon="4.55897">
        <ele>884</ele>
        <time>2014-04-08T10:03:23.000Z</time>
      </trkpt>
      <trkpt lat="45.26981" lon="4.55898">
        <ele>884</ele>
        <time>2014-04-08T10:03:24.000Z</time>
      </trkpt>
      <trkpt lat="45.26983" lon="4.5593">
        <ele>882</ele>
        <time>2014-04-08T10:03:43.000Z</time>
      </trkpt>
      <trkpt lat="45.26983" lon="4.55932">
        <ele>882</ele>
        <time>2014-04-08T10:03:44.000Z</time>
      </trkpt>
      <trkpt lat="45.26984" lon="4.55964">
        <ele>878</ele>
        <time>2014-04-08T10:04:01.000Z</time>
      </trkpt>
      <trkpt lat="45.26984" lon="4.55966">
        <ele>878</ele>
        <time>2014-04-08T10:04:02.000Z</time>
      </trkpt>
      <trkpt lat="45.26986" lon="4.56">
        <ele>877</ele>
        <time>2014-04-08T10:04:20.000Z</time>
      </trkpt>
      <trkpt lat="45.26986" lon="4.56002">
        <ele>877</ele>
        <time>2014-04-08T10:04:21.000Z</time>
      </trkpt>
      <trkpt lat="45.26989" lon="4.56034">
        <ele>878</ele>
        <time>2014-04-08T10:04:37.000Z</time>
      </trkpt>
      <trkpt lat="45.26989" lon="4.56036">
        <ele>878</ele>
        <time>2014-04-08T10:04:38.000Z</time>
      </trkpt>
      <trkpt lat="45.26991" lon="4.56069">
        <ele>882</ele>
        <time>2014-04-08T10:04:53.000Z</time>
      </trkpt>
      <trkpt lat="45.26991" lon="4.56072">
        <ele>882</ele>
        <time>2014-04-08T10:04:54.000Z</time>
      </trkpt>
      <trkpt lat="45.26991" lon="4.56105">
        <ele>888</ele>
        <time>2014-04-08T10:05:08.000Z</time>
      </trkpt>
      <trkpt lat="45.26991" lon="4.56107">
        <ele>888</ele>
        <time>2014-04-08T10:05:09.000Z</time>
      </trkpt>
      <trkpt lat="45.26989" lon="4.5614">
        <ele>894</ele>
        <time>2014-04-08T10:05:23.000Z</time>
      </trkpt>
      <trkpt lat="45.26989" lon="4.56141">
        <ele>894</ele>
        <time>2014-04-08T10:05:24.000Z</time>
      </trkpt>
      <trkpt lat="45.26989" lon="4.56174">
        <ele>892</ele>
        <time>2014-04-08T10:05:42.000Z</time>
      </trkpt>
      <trkpt lat="45.26989" lon="4.56175">
        <ele>892</ele>
        <time>2014-04-08T10:05:43.000Z</time>
      </trkpt>
      <trkpt lat="45.26989" lon="4.56207">
        <ele>889</ele>
        <time>2014-04-08T10:06:01.000Z</time>
      </trkpt>
      <trkpt lat="45.26989" lon="4.56209">
        <ele>889</ele>
        <time>2014-04-08T10:06:02.000Z</time>
      </trkpt>
      <trkpt lat="45.26989" lon="4.56241">
        <ele>889</ele>
        <time>2014-04-08T10:06:20.000Z</time>
      </trkpt>
      <trkpt lat="45.26989" lon="4.56243">
        <ele>889</ele>
        <time>2014-04-08T10:06:21.000Z</time>
      </trkpt>
      <trkpt lat="45.26992" lon="4.56275">
        <ele>887</ele>
        <time>2014-04-08T10:06:40.000Z</time>
      </trkpt>
      <trkpt lat="45.26992" lon="4.56277">
        <ele>887</ele>
        <time>2014-04-08T10:06:41.000Z</time>
      </trkpt>
      <trkpt lat="45.26996" lon="4.5631">
        <ele>885</ele>
        <time>2014-04-08T10:07:01.000Z</time>
      </trkpt>
      <trkpt lat="45.26996" lon="4.56312">
        <ele>885</ele>
        <time>2014-04-08T10:07:02.000Z</time>
      </trkpt>
      <trkpt lat="45.26999" lon="4.56344">
        <ele>883</ele>
        <time>2014-04-08T10:07:22.000Z</time>
      </trkpt>
      <trkpt lat="45.26999" lon="4.56346">
        <ele>884</ele>
        <time>2014-04-08T10:07:23.000Z</time>
      </trkpt>
      <trkpt lat="45.26997" lon="4.56379">
        <ele>891</ele>
        <time>2014-04-08T10:07:35.000Z</time>
      </trkpt>
      <trkpt lat="45.26997" lon="4.56382">
        <ele>891</ele>
        <time>2014-04-08T10:07:36.000Z</time>
      </trkpt>
      <trkpt lat="45.26996" lon="4.56414">
        <ele>896</ele>
        <time>2014-04-08T10:07:51.000Z</time>
      </trkpt>
      <trkpt lat="45.26996" lon="4.56416">
        <ele>896</ele>
        <time>2014-04-08T10:07:52.000Z</time>
      </trkpt>
      <trkpt lat="45.26996" lon="4.56448">
        <ele>891</ele>
        <time>2014-04-08T10:08:10.000Z</time>
      </trkpt>
      <trkpt lat="45.26996" lon="4.5645">
        <ele>891</ele>
        <time>2014-04-08T10:08:11.000Z</time>
      </trkpt>
      <trkpt lat="45.26998" lon="4.56483">
        <ele>890</ele>
        <time>2014-04-08T10:08:27.000Z</time>
      </trkpt>
      <trkpt lat="45.26999" lon="4.56484">
        <ele>890</ele>
        <time>2014-04-08T10:08:28.000Z</time>
      </trkpt>
      <trkpt lat="45.2701" lon="4.56513">
        <ele>885</ele>
        <time>2014-04-08T10:08:50.000Z</time>
      </trkpt>
      <trkpt lat="45.2701" lon="4.56514">
        <ele>885</ele>
        <time>2014-04-08T10:08:51.000Z</time>
      </trkpt>
      <trkpt lat="45.2701" lon="4.56529">
        <ele>892</ele>
        <time>2014-04-08T10:09:36.000Z</time>
      </trkpt>
      <trkpt lat="45.27102" lon="4.56678">
        <ele>716</ele>
        <time>2014-04-08T12:21:12.000Z</time>
      </trkpt>
      <trkpt lat="45.27123" lon="4.56638">
        <ele>709</ele>
        <time>2014-04-08T12:21:13.000Z</time>
      </trkpt>
      <trkpt lat="45.27121" lon="4.56638">
        <ele>707</ele>
        <time>2014-04-08T12:21:14.000Z</time>
      </trkpt>
      <trkpt lat="45.27098" lon="4.56638">
        <ele>698</ele>
        <time>2014-04-08T12:21:31.000Z</time>
      </trkpt>
      <trkpt lat="45.27097" lon="4.56637">
        <ele>699</ele>
        <time>2014-04-08T12:21:32.000Z</time>
      </trkpt>
      <trkpt lat="45.27102" lon="4.56604">
        <ele>710</ele>
        <time>2014-04-08T12:21:49.000Z</time>
      </trkpt>
      <trkpt lat="45.27106" lon="4.56597">
        <ele>710</ele>
        <time>2014-04-08T12:21:50.000Z</time>
      </trkpt>
      <trkpt lat="45.27112" lon="4.56566">
        <ele>711</ele>
        <time>2014-04-08T12:22:13.000Z</time>
      </trkpt>
      <trkpt lat="45.27113" lon="4.56564">
        <ele>711</ele>
        <time>2014-04-08T12:22:14.000Z</time>
      </trkpt>
      <trkpt lat="45.27128" lon="4.56535">
        <ele>716</ele>
        <time>2014-04-08T12:22:29.000Z</time>
      </trkpt>
      <trkpt lat="45.27129" lon="4.56532">
        <ele>717</ele>
        <time>2014-04-08T12:22:30.000Z</time>
      </trkpt>
      <trkpt lat="45.27145" lon="4.56507">
        <ele>731</ele>
        <time>2014-04-08T12:22:39.000Z</time>
      </trkpt>
      <trkpt lat="45.27146" lon="4.56504">
        <ele>732</ele>
        <time>2014-04-08T12:22:40.000Z</time>
      </trkpt>
      <trkpt lat="45.27163" lon="4.56482">
        <ele>748</ele>
        <time>2014-04-08T12:22:51.000Z</time>
      </trkpt>
      <trkpt lat="45.27164" lon="4.5648">
        <ele>749</ele>
        <time>2014-04-08T12:22:52.000Z</time>
      </trkpt>
      <trkpt lat="45.2718" lon="4.56457">
        <ele>763</ele>
        <time>2014-04-08T12:23:05.000Z</time>
      </trkpt>
      <trkpt lat="45.27181" lon="4.56455">
        <ele>764</ele>
        <time>2014-04-08T12:23:06.000Z</time>
      </trkpt>
      <trkpt lat="45.27201" lon="4.56437">
        <ele>775</ele>
        <time>2014-04-08T12:23:22.000Z</time>
      </trkpt>
      <trkpt lat="45.27202" lon="4.56436">
        <ele>776</ele>
        <time>2014-04-08T12:23:23.000Z</time>
      </trkpt>
      <trkpt lat="45.27225" lon="4.56428">
        <ele>784</ele>
        <time>2014-04-08T12:23:39.000Z</time>
      </trkpt>
      <trkpt lat="45.27227" lon="4.56428">
        <ele>785</ele>
        <time>2014-04-08T12:23:40.000Z</time>
      </trkpt>
      <trkpt lat="45.2725" lon="4.5643">
        <ele>788</ele>
        <time>2014-04-08T12:23:55.000Z</time>
      </trkpt>
      <trkpt lat="45.27251" lon="4.5643">
        <ele>789</ele>
        <time>2014-04-08T12:23:56.000Z</time>
      </trkpt>
      <trkpt lat="45.27274" lon="4.56431">
        <ele>807</ele>
        <time>2014-04-08T12:24:12.000Z</time>
      </trkpt>
      <trkpt lat="45.27276" lon="4.56431">
        <ele>809</ele>
        <time>2014-04-08T12:24:13.000Z</time>
      </trkpt>
      <trkpt lat="45.27299" lon="4.56433">
        <ele>840</ele>
        <time>2014-04-08T12:24:27.000Z</time>
      </trkpt>
      <trkpt lat="45.27301" lon="4.56433">
        <ele>842</ele>
        <time>2014-04-08T12:24:28.000Z</time>
      </trkpt>
      <trkpt lat="45.27324" lon="4.5644">
        <ele>858</ele>
        <time>2014-04-08T12:24:43.000Z</time>
      </trkpt>
      <trkpt lat="45.27325" lon="4.5644">
        <ele>859</ele>
        <time>2014-04-08T12:24:44.000Z</time>
      </trkpt>
      <trkpt lat="45.27348" lon="4.56451">
        <ele>868</ele>
        <time>2014-04-08T12:24:59.000Z</time>
      </trkpt>
      <trkpt lat="45.27349" lon="4.56452">
        <ele>868</ele>
        <time>2014-04-08T12:25:00.000Z</time>
      </trkpt>
      <trkpt lat="45.27368" lon="4.56468">
        <ele>872</ele>
        <time>2014-04-08T12:25:16.000Z</time>
      </trkpt>
      <trkpt lat="45.27369" lon="4.56469">
        <ele>872</ele>
        <time>2014-04-08T12:25:17.000Z</time>
      </trkpt>
      <trkpt lat="45.2739" lon="4.56484">
        <ele>875</ele>
        <time>2014-04-08T12:25:33.000Z</time>
      </trkpt>
      <trkpt lat="45.27391" lon="4.56485">
        <ele>875</ele>
        <time>2014-04-08T12:25:34.000Z</time>
      </trkpt>
      <trkpt lat="45.27413" lon="4.56496">
        <ele>876</ele>
        <time>2014-04-08T12:25:51.000Z</time>
      </trkpt>
      <trkpt lat="45.27414" lon="4.56496">
        <ele>877</ele>
        <time>2014-04-08T12:25:52.000Z</time>
      </trkpt>
      <trkpt lat="45.27438" lon="4.56497">
        <ele>876</ele>
        <time>2014-04-08T12:26:09.000Z</time>
      </trkpt>
      <trkpt lat="45.27439" lon="4.56497">
        <ele>876</ele>
        <time>2014-04-08T12:26:10.000Z</time>
      </trkpt>
      <trkpt lat="45.2746" lon="4.56486">
        <ele>872</ele>
        <time>2014-04-08T12:26:35.000Z</time>
      </trkpt>
      <trkpt lat="45.27461" lon="4.56486">
        <ele>872</ele>
        <time>2014-04-08T12:26:36.000Z</time>
      </trkpt>
      <trkpt lat="45.27481" lon="4.56472">
        <ele>869</ele>
        <time>2014-04-08T12:26:55.000Z</time>
      </trkpt>
      <trkpt lat="45.27483" lon="4.56472">
        <ele>869</ele>
        <time>2014-04-08T12:26:56.000Z</time>
      </trkpt>
      <trkpt lat="45.27505" lon="4.56476">
        <ele>869</ele>
        <time>2014-04-08T12:27:13.000Z</time>
      </trkpt>
      <trkpt lat="45.27507" lon="4.56476">
        <ele>868</ele>
        <time>2014-04-08T12:27:14.000Z</time>
      </trkpt>
      <trkpt lat="45.27526" lon="4.56495">
        <ele>870</ele>
        <time>2014-04-08T12:27:31.000Z</time>
      </trkpt>
      <trkpt lat="45.27528" lon="4.56496">
        <ele>870</ele>
        <time>2014-04-08T12:27:32.000Z</time>
      </trkpt>
      <trkpt lat="45.27543" lon="4.56522">
        <ele>870</ele>
        <time>2014-04-08T12:27:49.000Z</time>
      </trkpt>
      <trkpt lat="45.27544" lon="4.56523">
        <ele>870</ele>
        <time>2014-04-08T12:27:50.000Z</time>
      </trkpt>
      <trkpt lat="45.27557" lon="4.56552">
        <ele>865</ele>
        <time>2014-04-08T12:28:07.000Z</time>
      </trkpt>
      <trkpt lat="45.27557" lon="4.56553">
        <ele>865</ele>
        <time>2014-04-08T12:28:08.000Z</time>
      </trkpt>
      <trkpt lat="45.27568" lon="4.56581">
        <ele>858</ele>
        <time>2014-04-08T12:28:26.000Z</time>
      </trkpt>
      <trkpt lat="45.27569" lon="4.56582">
        <ele>858</ele>
        <time>2014-04-08T12:28:27.000Z</time>
      </trkpt>
      <trkpt lat="45.27578" lon="4.56613">
        <ele>856</ele>
        <time>2014-04-08T12:28:44.000Z</time>
      </trkpt>
      <trkpt lat="45.27579" lon="4.56615">
        <ele>856</ele>
        <time>2014-04-08T12:28:45.000Z</time>
      </trkpt>
      <trkpt lat="45.27592" lon="4.56641">
        <ele>856</ele>
        <time>2014-04-08T12:29:01.000Z</time>
      </trkpt>
      <trkpt lat="45.27593" lon="4.56643">
        <ele>857</ele>
        <time>2014-04-08T12:29:02.000Z</time>
      </trkpt>
      <trkpt lat="45.27612" lon="4.56662">
        <ele>858</ele>
        <time>2014-04-08T12:29:22.000Z</time>
      </trkpt>
      <trkpt lat="45.27613" lon="4.56663">
        <ele>858</ele>
        <time>2014-04-08T12:29:23.000Z</time>
      </trkpt>
      <trkpt lat="45.27628" lon="4.56689">
        <ele>861</ele>
        <time>2014-04-08T12:29:42.000Z</time>
      </trkpt>
      <trkpt lat="45.27628" lon="4.56691">
        <ele>862</ele>
        <time>2014-04-08T12:29:43.000Z</time>
      </trkpt>
      <trkpt lat="45.27646" lon="4.56712">
        <ele>865</ele>
        <time>2014-04-08T12:30:02.000Z</time>
      </trkpt>
      <trkpt lat="45.27647" lon="4.56713">
        <ele>865</ele>
        <time>2014-04-08T12:30:03.000Z</time>
      </trkpt>
      <trkpt lat="45.27669" lon="4.5671">
        <ele>862</ele>
        <time>2014-04-08T12:30:26.000Z</time>
      </trkpt>
      <trkpt lat="45.2767" lon="4.56709">
        <ele>861</ele>
        <time>2014-04-08T12:30:27.000Z</time>
      </trkpt>
      <trkpt lat="45.27692" lon="4.567">
        <ele>854</ele>
        <time>2014-04-08T12:30:44.000Z</time>
      </trkpt>
      <trkpt lat="45.27693" lon="4.567">
        <ele>854</ele>
        <time>2014-04-08T12:30:45.000Z</time>
      </trkpt>
      <trkpt lat="45.27715" lon="4.56689">
        <ele>855</ele>
        <time>2014-04-08T12:31:03.000Z</time>
      </trkpt>
      <trkpt lat="45.27716" lon="4.56688">
        <ele>855</ele>
        <time>2014-04-08T12:31:04.000Z</time>
      </trkpt>
      <trkpt lat="45.27737" lon="4.56676">
        <ele>854</ele>
        <time>2014-04-08T12:33:57.000Z</time>
      </trkpt>
      <trkpt lat="45.27738" lon="4.56676">
        <ele>853</ele>
        <time>2014-04-08T12:33:58.000Z</time>
      </trkpt>
      <trkpt lat="45.27759" lon="4.5666">
        <ele>835</ele>
        <time>2014-04-08T12:34:16.000Z</time>
      </trkpt>
      <trkpt lat="45.2776" lon="4.56659">
        <ele>834</ele>
        <time>2014-04-08T12:34:17.000Z</time>
      </trkpt>
      <trkpt lat="45.27779" lon="4.56638">
        <ele>836</ele>
        <time>2014-04-08T12:34:37.000Z</time>
      </trkpt>
      <trkpt lat="45.2778" lon="4.56637">
        <ele>837</ele>
        <time>2014-04-08T12:34:38.000Z</time>
      </trkpt>
      <trkpt lat="45.27795" lon="4.56613">
        <ele>841</ele>
        <time>2014-04-08T12:35:01.000Z</time>
      </trkpt>
      <trkpt lat="45.27796" lon="4.56612">
        <ele>841</ele>
        <time>2014-04-08T12:35:02.000Z</time>
      </trkpt>
      <trkpt lat="45.27811" lon="4.56588">
        <ele>842</ele>
        <time>2014-04-08T12:35:19.000Z</time>
      </trkpt>
      <trkpt lat="45.27812" lon="4.56587">
        <ele>842</ele>
        <time>2014-04-08T12:35:20.000Z</time>
      </trkpt>
      <trkpt lat="45.27829" lon="4.56565">
        <ele>837</ele>
        <time>2014-04-08T12:35:38.000Z</time>
      </trkpt>
      <trkpt lat="45.27831" lon="4.56563">
        <ele>838</ele>
        <time>2014-04-08T12:35:39.000Z</time>
      </trkpt>
      <trkpt lat="45.2785" lon="4.56544">
        <ele>829</ele>
        <time>2014-04-08T12:35:56.000Z</time>
      </trkpt>
      <trkpt lat="45.27851" lon="4.56544">
        <ele>829</ele>
        <time>2014-04-08T12:35:57.000Z</time>
      </trkpt>
      <trkpt lat="45.27874" lon="4.56547">
        <ele>833</ele>
        <time>2014-04-08T12:36:16.000Z</time>
      </trkpt>
      <trkpt lat="45.27876" lon="4.56548">
        <ele>834</ele>
        <time>2014-04-08T12:36:17.000Z</time>
      </trkpt>
      <trkpt lat="45.27896" lon="4.56564">
        <ele>842</ele>
        <time>2014-04-08T12:36:40.000Z</time>
      </trkpt>
      <trkpt lat="45.27896" lon="4.56565">
        <ele>841</ele>
        <time>2014-04-08T12:36:41.000Z</time>
      </trkpt>
      <trkpt lat="45.27919" lon="4.56558">
        <ele>833</ele>
        <time>2014-04-08T12:37:04.000Z</time>
      </trkpt>
      <trkpt lat="45.2792" lon="4.56558">
        <ele>833</ele>
        <time>2014-04-08T12:37:05.000Z</time>
      </trkpt>
      <trkpt lat="45.27943" lon="4.56554">
        <ele>833</ele>
        <time>2014-04-08T12:37:27.000Z</time>
      </trkpt>
      <trkpt lat="45.27944" lon="4.56554">
        <ele>834</ele>
        <time>2014-04-08T12:37:28.000Z</time>
      </trkpt>
      <trkpt lat="45.27967" lon="4.56557">
        <ele>840</ele>
        <time>2014-04-08T12:37:50.000Z</time>
      </trkpt>
      <trkpt lat="45.27968" lon="4.56558">
        <ele>840</ele>
        <time>2014-04-08T12:37:51.000Z</time>
      </trkpt>
      <trkpt lat="45.2799" lon="4.56567">
        <ele>847</ele>
        <time>2014-04-08T12:38:12.000Z</time>
      </trkpt>
      <trkpt lat="45.27991" lon="4.56568">
        <ele>846</ele>
        <time>2014-04-08T12:38:13.000Z</time>
      </trkpt>
      <trkpt lat="45.28014" lon="4.56567">
        <ele>843</ele>
        <time>2014-04-08T12:38:32.000Z</time>
      </trkpt>
      <trkpt lat="45.28015" lon="4.56567">
        <ele>843</ele>
        <time>2014-04-08T12:38:33.000Z</time>
      </trkpt>
      <trkpt lat="45.28037" lon="4.5656">
        <ele>839</ele>
        <time>2014-04-08T12:38:56.000Z</time>
      </trkpt>
      <trkpt lat="45.28038" lon="4.5656">
        <ele>840</ele>
        <time>2014-04-08T12:38:57.000Z</time>
      </trkpt>
      <trkpt lat="45.28061" lon="4.56552">
        <ele>844</ele>
        <time>2014-04-08T12:39:18.000Z</time>
      </trkpt>
      <trkpt lat="45.28062" lon="4.56552">
        <ele>845</ele>
        <time>2014-04-08T12:39:19.000Z</time>
      </trkpt>
      <trkpt lat="45.28085" lon="4.5655">
        <ele>851</ele>
        <time>2014-04-08T12:39:43.000Z</time>
      </trkpt>
      <trkpt lat="45.28086" lon="4.56551">
        <ele>851</ele>
        <time>2014-04-08T12:39:44.000Z</time>
      </trkpt>
      <trkpt lat="45.28109" lon="4.56546">
        <ele>856</ele>
        <time>2014-04-08T12:40:03.000Z</time>
      </trkpt>
      <trkpt lat="45.28111" lon="4.56546">
        <ele>857</ele>
        <time>2014-04-08T12:40:04.000Z</time>
      </trkpt>
      <trkpt lat="45.28133" lon="4.56539">
        <ele>865</ele>
        <time>2014-04-08T12:40:19.000Z</time>
      </trkpt>
      <trkpt lat="45.28135" lon="4.56538">
        <ele>865</ele>
        <time>2014-04-08T12:40:20.000Z</time>
      </trkpt>
      <trkpt lat="45.28158" lon="4.5653">
        <ele>866</ele>
        <time>2014-04-08T12:40:35.000Z</time>
      </trkpt>
      <trkpt lat="45.28167" lon="4.56528">
        <ele>867</ele>
        <time>2014-04-08T12:40:39.000Z</time>
      </trkpt>
      <trkpt lat="45.2819" lon="4.5652">
        <ele>873</ele>
        <time>2014-04-08T12:40:49.000Z</time>
      </trkpt>
      <trkpt lat="45.28192" lon="4.5652">
        <ele>874</ele>
        <time>2014-04-08T12:40:50.000Z</time>
      </trkpt>
      <trkpt lat="45.28215" lon="4.56518">
        <ele>886</ele>
        <time>2014-04-08T12:40:59.000Z</time>
      </trkpt>
      <trkpt lat="45.28218" lon="4.56517">
        <ele>886</ele>
        <time>2014-04-08T12:41:00.000Z</time>
      </trkpt>
      <trkpt lat="45.28247" lon="4.56506">
        <ele>900</ele>
        <time>2014-04-08T12:41:14.000Z</time>
      </trkpt>
      <trkpt lat="45.28247" lon="4.56505">
        <ele>901</ele>
        <time>2014-04-08T12:41:15.000Z</time>
      </trkpt>
      <trkpt lat="45.28264" lon="4.56483">
        <ele>899</ele>
        <time>2014-04-08T12:41:32.000Z</time>
      </trkpt>
      <trkpt lat="45.28265" lon="4.56482">
        <ele>899</ele>
        <time>2014-04-08T12:41:33.000Z</time>
      </trkpt>
      <trkpt lat="45.28282" lon="4.56456">
        <ele>906</ele>
        <time>2014-04-08T12:41:58.000Z</time>
      </trkpt>
      <trkpt lat="45.28287" lon="4.56455">
        <ele>906</ele>
        <time>2014-04-08T12:41:59.000Z</time>
      </trkpt>
      <trkpt lat="45.28308" lon="4.56445">
        <ele>901</ele>
        <time>2014-04-08T12:42:10.000Z</time>
      </trkpt>
      <trkpt lat="45.2831" lon="4.56444">
        <ele>901</ele>
        <time>2014-04-08T12:42:11.000Z</time>
      </trkpt>
      <trkpt lat="45.28331" lon="4.5643">
        <ele>906</ele>
        <time>2014-04-08T12:42:29.000Z</time>
      </trkpt>
      <trkpt lat="45.28332" lon="4.5643">
        <ele>906</ele>
        <time>2014-04-08T12:42:30.000Z</time>
      </trkpt>
      <trkpt lat="45.28356" lon="4.56428">
        <ele>917</ele>
        <time>2014-04-08T12:42:47.000Z</time>
      </trkpt>
      <trkpt lat="45.2837" lon="4.56403">
        <ele>880</ele>
        <time>2014-04-08T12:43:33.000Z</time>
      </trkpt>
      <trkpt lat="45.2837" lon="4.56402">
        <ele>879</ele>
        <time>2014-04-08T12:43:34.000Z</time>
      </trkpt>
      <trkpt lat="45.28387" lon="4.56381">
        <ele>863</ele>
        <time>2014-04-08T12:44:33.000Z</time>
      </trkpt>
      <trkpt lat="45.28388" lon="4.5638">
        <ele>863</ele>
        <time>2014-04-08T12:44:34.000Z</time>
      </trkpt>
      <trkpt lat="45.28411" lon="4.56375">
        <ele>861</ele>
        <time>2014-04-08T12:45:03.000Z</time>
      </trkpt>
      <trkpt lat="45.28412" lon="4.56375">
        <ele>861</ele>
        <time>2014-04-08T12:45:04.000Z</time>
      </trkpt>
      <trkpt lat="45.28435" lon="4.5637">
        <ele>857</ele>
        <time>2014-04-08T12:45:30.000Z</time>
      </trkpt>
      <trkpt lat="45.28436" lon="4.5637">
        <ele>857</ele>
        <time>2014-04-08T12:45:31.000Z</time>
      </trkpt>
      <trkpt lat="45.28459" lon="4.56363">
        <ele>859</ele>
        <time>2014-04-08T12:45:50.000Z</time>
      </trkpt>
      <trkpt lat="45.28462" lon="4.56363">
        <ele>860</ele>
        <time>2014-04-08T12:45:51.000Z</time>
      </trkpt>
      <trkpt lat="45.28484" lon="4.5635">
        <ele>862</ele>
        <time>2014-04-08T12:46:10.000Z</time>
      </trkpt>
      <trkpt lat="45.28486" lon="4.56349">
        <ele>862</ele>
        <time>2014-04-08T12:46:11.000Z</time>
      </trkpt>
      <trkpt lat="45.28511" lon="4.56338">
        <ele>847</ele>
        <time>2014-04-08T12:46:40.000Z</time>
      </trkpt>
      <trkpt lat="45.28512" lon="4.56337">
        <ele>847</ele>
        <time>2014-04-08T12:46:41.000Z</time>
      </trkpt>
      <trkpt lat="45.28536" lon="4.56334">
        <ele>842</ele>
        <time>2014-04-08T12:47:04.000Z</time>
      </trkpt>
      <trkpt lat="45.28537" lon="4.56334">
        <ele>842</ele>
        <time>2014-04-08T12:47:05.000Z</time>
      </trkpt>
      <trkpt lat="45.28561" lon="4.56333">
        <ele>850</ele>
        <time>2014-04-08T12:47:20.000Z</time>
      </trkpt>
      <trkpt lat="45.28563" lon="4.56333">
        <ele>850</ele>
        <time>2014-04-08T12:47:21.000Z</time>
      </trkpt>
      <trkpt lat="45.28586" lon="4.56333">
        <ele>847</ele>
        <time>2014-04-08T12:47:38.000Z</time>
      </trkpt>
      <trkpt lat="45.28587" lon="4.56333">
        <ele>847</ele>
        <time>2014-04-08T12:47:39.000Z</time>
      </trkpt>
      <trkpt lat="45.28609" lon="4.56336">
        <ele>850</ele>
        <time>2014-04-08T12:47:59.000Z</time>
      </trkpt>
      <trkpt lat="45.28611" lon="4.56336">
        <ele>850</ele>
        <time>2014-04-08T12:48:00.000Z</time>
      </trkpt>
      <trkpt lat="45.28633" lon="4.56327">
        <ele>853</ele>
        <time>2014-04-08T12:48:15.000Z</time>
      </trkpt>
      <trkpt lat="45.28634" lon="4.56326">
        <ele>853</ele>
        <time>2014-04-08T12:48:16.000Z</time>
      </trkpt>
      <trkpt lat="45.28644" lon="4.56295">
        <ele>855</ele>
        <time>2014-04-08T12:48:50.000Z</time>
      </trkpt>
      <trkpt lat="45.28644" lon="4.56294">
        <ele>855</ele>
        <time>2014-04-08T12:48:51.000Z</time>
      </trkpt>
      <trkpt lat="45.28657" lon="4.56266">
        <ele>844</ele>
        <time>2014-04-08T12:49:21.000Z</time>
      </trkpt>
      <trkpt lat="45.28659" lon="4.56265">
        <ele>844</ele>
        <time>2014-04-08T12:49:22.000Z</time>
      </trkpt>
      <trkpt lat="45.28672" lon="4.56239">
        <ele>839</ele>
        <time>2014-04-08T12:49:40.000Z</time>
      </trkpt>
      <trkpt lat="45.28673" lon="4.56238">
        <ele>842</ele>
        <time>2014-04-08T12:49:41.000Z</time>
      </trkpt>
      <trkpt lat="45.28693" lon="4.56219">
        <ele>851</ele>
        <time>2014-04-08T12:50:03.000Z</time>
      </trkpt>
      <trkpt lat="45.28696" lon="4.56218">
        <ele>850</ele>
        <time>2014-04-08T12:50:04.000Z</time>
      </trkpt>
      <trkpt lat="45.28721" lon="4.56207">
        <ele>840</ele>
        <time>2014-04-08T12:50:23.000Z</time>
      </trkpt>
      <trkpt lat="45.28721" lon="4.56206">
        <ele>839</ele>
        <time>2014-04-08T12:50:24.000Z</time>
      </trkpt>
      <trkpt lat="45.2874" lon="4.56188">
        <ele>827</ele>
        <time>2014-04-08T12:51:06.000Z</time>
      </trkpt>
      <trkpt lat="45.28741" lon="4.56187">
        <ele>826</ele>
        <time>2014-04-08T12:51:07.000Z</time>
      </trkpt>
      <trkpt lat="45.28764" lon="4.56172">
        <ele>829</ele>
        <time>2014-04-08T12:51:32.000Z</time>
      </trkpt>
      <trkpt lat="45.28762" lon="4.56169">
        <ele>829</ele>
        <time>2014-04-08T12:51:33.000Z</time>
      </trkpt>
      <trkpt lat="45.28783" lon="4.56148">
        <ele>825</ele>
        <time>2014-04-08T12:51:56.000Z</time>
      </trkpt>
      <trkpt lat="45.28784" lon="4.56148">
        <ele>825</ele>
        <time>2014-04-08T12:51:57.000Z</time>
      </trkpt>
      <trkpt lat="45.28808" lon="4.56142">
        <ele>825</ele>
        <time>2014-04-08T12:52:20.000Z</time>
      </trkpt>
      <trkpt lat="45.28809" lon="4.56141">
        <ele>825</ele>
        <time>2014-04-08T12:52:21.000Z</time>
      </trkpt>
      <trkpt lat="45.28832" lon="4.56136">
        <ele>826</ele>
        <time>2014-04-08T12:52:41.000Z</time>
      </trkpt>
      <trkpt lat="45.28834" lon="4.56136">
        <ele>826</ele>
        <time>2014-04-08T12:52:42.000Z</time>
      </trkpt>
      <trkpt lat="45.28856" lon="4.56126">
        <ele>822</ele>
        <time>2014-04-08T12:53:17.000Z</time>
      </trkpt>
      <trkpt lat="45.28856" lon="4.56125">
        <ele>821</ele>
        <time>2014-04-08T12:53:18.000Z</time>
      </trkpt>
      <trkpt lat="45.28841" lon="4.56097">
        <ele>798</ele>
        <time>2014-04-08T12:53:40.000Z</time>
      </trkpt>
      <trkpt lat="45.28841" lon="4.56097">
        <ele>797</ele>
        <time>2014-04-08T12:53:41.000Z</time>
      </trkpt>
      <trkpt lat="45.28786" lon="4.56032">
        <ele>849</ele>
        <time>2014-04-08T12:55:23.000Z</time>
      </trkpt>
      <trkpt lat="45.28786" lon="4.56032">
        <ele>849</ele>
        <time>2014-04-08T12:55:37.000Z</time>
      </trkpt>
      <trkpt lat="45.28802" lon="4.55996">
        <ele>791</ele>
        <time>2014-04-08T12:55:46.000Z</time>
      </trkpt>
      <trkpt lat="45.28815" lon="4.5599">
        <ele>784</ele>
        <time>2014-04-08T12:56:02.000Z</time>
      </trkpt>
      <trkpt lat="45.28838" lon="4.55989">
        <ele>776</ele>
        <time>2014-04-08T12:56:19.000Z</time>
      </trkpt>
      <trkpt lat="45.28842" lon="4.5599">
        <ele>773</ele>
        <time>2014-04-08T12:56:20.000Z</time>
      </trkpt>
      <trkpt lat="45.28882" lon="4.55987">
        <ele>743</ele>
        <time>2014-04-08T12:57:06.000Z</time>
      </trkpt>
      <trkpt lat="45.28885" lon="4.55988">
        <ele>744</ele>
        <time>2014-04-08T12:57:07.000Z</time>
      </trkpt>
      <trkpt lat="45.29004" lon="4.55914">
        <ele>773</ele>
        <time>2014-04-08T13:01:10.000Z</time>
      </trkpt>
      <trkpt lat="45.29004" lon="4.55914">
        <ele>773</ele>
        <time>2014-04-08T13:01:11.000Z</time>
      </trkpt>
      <trkpt lat="45.28979" lon="4.559">
        <ele>766</ele>
        <time>2014-04-08T13:01:12.000Z</time>
      </trkpt>
      <trkpt lat="45.28968" lon="4.55895">
        <ele>763</ele>
        <time>2014-04-08T13:01:13.000Z</time>
      </trkpt>
      <trkpt lat="45.28959" lon="4.55889">
        <ele>761</ele>
        <time>2014-04-08T13:01:14.000Z</time>
      </trkpt>
      <trkpt lat="45.28933" lon="4.55875">
        <ele>755</ele>
        <time>2014-04-08T13:01:17.000Z</time>
      </trkpt>
      <trkpt lat="45.28925" lon="4.55872">
        <ele>754</ele>
        <time>2014-04-08T13:01:18.000Z</time>
      </trkpt>
      <trkpt lat="45.2905" lon="4.5594">
        <ele>634</ele>
        <time>2014-04-08T13:04:10.000Z</time>
      </trkpt>
      <trkpt lat="45.29047" lon="4.55934">
        <ele>640</ele>
        <time>2014-04-08T13:04:11.000Z</time>
      </trkpt>
      <trkpt lat="45.29037" lon="4.55897">
        <ele>680</ele>
        <time>2014-04-08T13:04:20.000Z</time>
      </trkpt>
      <trkpt lat="45.29037" lon="4.55896">
        <ele>682</ele>
        <time>2014-04-08T13:04:21.000Z</time>
      </trkpt>
      <trkpt lat="45.29065" lon="4.5587">
        <ele>689</ele>
        <time>2014-04-08T13:05:23.000Z</time>
      </trkpt>
      <trkpt lat="45.29072" lon="4.55868">
        <ele>689</ele>
        <time>2014-04-08T13:05:26.000Z</time>
      </trkpt>
      <trkpt lat="45.28876" lon="4.55808">
        <ele>749</ele>
        <time>2014-04-08T13:08:51.000Z</time>
      </trkpt>
      <trkpt lat="45.28873" lon="4.55802">
        <ele>745</ele>
        <time>2014-04-08T13:08:52.000Z</time>
      </trkpt>
      <trkpt lat="45.28867" lon="4.55769">
        <ele>720</ele>
        <time>2014-04-08T13:09:00.000Z</time>
      </trkpt>
      <trkpt lat="45.28867" lon="4.55766">
        <ele>717</ele>
        <time>2014-04-08T13:09:01.000Z</time>
      </trkpt>
      <trkpt lat="45.28931" lon="4.55706">
        <ele>625</ele>
        <time>2014-04-08T13:10:28.000Z</time>
      </trkpt>
      <trkpt lat="45.28932" lon="4.55705">
        <ele>626</ele>
        <time>2014-04-08T13:10:29.000Z</time>
      </trkpt>
      <trkpt lat="45.28952" lon="4.55689">
        <ele>639</ele>
        <time>2014-04-08T13:10:42.000Z</time>
      </trkpt>
      <trkpt lat="45.28954" lon="4.55689">
        <ele>639</ele>
        <time>2014-04-08T13:10:43.000Z</time>
      </trkpt>
      <trkpt lat="45.28977" lon="4.55679">
        <ele>633</ele>
        <time>2014-04-08T13:11:05.000Z</time>
      </trkpt>
      <trkpt lat="45.28978" lon="4.55679">
        <ele>632</ele>
        <time>2014-04-08T13:11:06.000Z</time>
      </trkpt>
      <trkpt lat="45.28997" lon="4.55697">
        <ele>632</ele>
        <time>2014-04-08T13:11:29.000Z</time>
      </trkpt>
      <trkpt lat="45.28997" lon="4.55698">
        <ele>632</ele>
        <time>2014-04-08T13:11:30.000Z</time>
      </trkpt>
      <trkpt lat="45.29018" lon="4.5571">
        <ele>634</ele>
        <time>2014-04-08T13:11:54.000Z</time>
      </trkpt>
      <trkpt lat="45.29019" lon="4.55711">
        <ele>634</ele>
        <time>2014-04-08T13:11:55.000Z</time>
      </trkpt>
      <trkpt lat="45.29041" lon="4.55717">
        <ele>629</ele>
        <time>2014-04-08T13:12:34.000Z</time>
      </trkpt>
      <trkpt lat="45.29042" lon="4.55721">
        <ele>629</ele>
        <time>2014-04-08T13:12:36.000Z</time>
      </trkpt>
      <trkpt lat="45.29065" lon="4.55711">
        <ele>602</ele>
        <time>2014-04-08T13:13:33.000Z</time>
      </trkpt>
      <trkpt lat="45.29068" lon="4.55711">
        <ele>605</ele>
        <time>2014-04-08T13:13:34.000Z</time>
      </trkpt>
      <trkpt lat="45.29092" lon="4.55711">
        <ele>624</ele>
        <time>2014-04-08T13:13:49.000Z</time>
      </trkpt>
      <trkpt lat="45.29093" lon="4.55712">
        <ele>624</ele>
        <time>2014-04-08T13:13:50.000Z</time>
      </trkpt>
      <trkpt lat="45.29118" lon="4.5573">
        <ele>637</ele>
        <time>2014-04-08T13:14:13.000Z</time>
      </trkpt>
      <trkpt lat="45.29119" lon="4.55731">
        <ele>638</ele>
        <time>2014-04-08T13:14:14.000Z</time>
      </trkpt>
      <trkpt lat="45.29136" lon="4.55753">
        <ele>628</ele>
        <time>2014-04-08T13:14:51.000Z</time>
      </trkpt>
      <trkpt lat="45.29139" lon="4.55754">
        <ele>626</ele>
        <time>2014-04-08T13:14:52.000Z</time>
      </trkpt>
      <trkpt lat="45.29161" lon="4.5576">
        <ele>624</ele>
        <time>2014-04-08T13:14:59.000Z</time>
      </trkpt>
      <trkpt lat="45.29164" lon="4.55761">
        <ele>624</ele>
        <time>2014-04-08T13:15:00.000Z</time>
      </trkpt>
      <trkpt lat="45.29216" lon="4.55807">
        <ele>594</ele>
        <time>2014-04-08T13:15:52.000Z</time>
      </trkpt>
      <trkpt lat="45.29219" lon="4.55812">
        <ele>592</ele>
        <time>2014-04-08T13:15:54.000Z</time>
      </trkpt>
      <trkpt lat="45.29234" lon="4.55837">
        <ele>594</ele>
        <time>2014-04-08T13:16:05.000Z</time>
      </trkpt>
      <trkpt lat="45.29235" lon="4.5584">
        <ele>594</ele>
        <time>2014-04-08T13:16:06.000Z</time>
      </trkpt>
      <trkpt lat="45.29241" lon="4.55871">
        <ele>591</ele>
        <time>2014-04-08T13:16:21.000Z</time>
      </trkpt>
      <trkpt lat="45.29241" lon="4.55873">
        <ele>591</ele>
        <time>2014-04-08T13:16:22.000Z</time>
      </trkpt>
      <trkpt lat="45.29257" lon="4.55898">
        <ele>600</ele>
        <time>2014-04-08T13:16:37.000Z</time>
      </trkpt>
      <trkpt lat="45.29262" lon="4.55904">
        <ele>602</ele>
        <time>2014-04-08T13:16:40.000Z</time>
      </trkpt>
      <trkpt lat="45.29274" lon="4.55932">
        <ele>596</ele>
        <time>2014-04-08T13:17:00.000Z</time>
      </trkpt>
      <trkpt lat="45.29275" lon="4.55932">
        <ele>595</ele>
        <time>2014-04-08T13:17:01.000Z</time>
      </trkpt>
      <trkpt lat="45.29288" lon="4.5597">
        <ele>584</ele>
        <time>2014-04-08T13:17:30.000Z</time>
      </trkpt>
      <trkpt lat="45.2929" lon="4.55971">
        <ele>584</ele>
        <time>2014-04-08T13:17:31.000Z</time>
      </trkpt>
      <trkpt lat="45.29307" lon="4.56">
        <ele>593</ele>
        <time>2014-04-08T13:17:48.000Z</time>
      </trkpt>
      <trkpt lat="45.29309" lon="4.56008">
        <ele>595</ele>
        <time>2014-04-08T13:17:51.000Z</time>
      </trkpt>
      <trkpt lat="45.2932" lon="4.5604">
        <ele>604</ele>
        <time>2014-04-08T13:18:07.000Z</time>
      </trkpt>
      <trkpt lat="45.29319" lon="4.56042">
        <ele>603</ele>
        <time>2014-04-08T13:18:08.000Z</time>
      </trkpt>
      <trkpt lat="45.29324" lon="4.56075">
        <ele>599</ele>
        <time>2014-04-08T13:18:29.000Z</time>
      </trkpt>
      <trkpt lat="45.29324" lon="4.56077">
        <ele>600</ele>
        <time>2014-04-08T13:18:30.000Z</time>
      </trkpt>
      <trkpt lat="45.29338" lon="4.56102">
        <ele>603</ele>
        <time>2014-04-08T13:18:48.000Z</time>
      </trkpt>
      <trkpt lat="45.29339" lon="4.56103">
        <ele>603</ele>
        <time>2014-04-08T13:18:49.000Z</time>
      </trkpt>
      <trkpt lat="45.29334" lon="4.56135">
        <ele>596</ele>
        <time>2014-04-08T13:19:08.000Z</time>
      </trkpt>
      <trkpt lat="45.29334" lon="4.56137">
        <ele>596</ele>
        <time>2014-04-08T13:19:09.000Z</time>
      </trkpt>
      <trkpt lat="45.29329" lon="4.56169">
        <ele>592</ele>
        <time>2014-04-08T13:19:27.000Z</time>
      </trkpt>
      <trkpt lat="45.29329" lon="4.56171">
        <ele>592</ele>
        <time>2014-04-08T13:19:28.000Z</time>
      </trkpt>
      <trkpt lat="45.29345" lon="4.56205">
        <ele>592</ele>
        <time>2014-04-08T13:19:44.000Z</time>
      </trkpt>
      <trkpt lat="45.29345" lon="4.56206">
        <ele>591</ele>
        <time>2014-04-08T13:19:45.000Z</time>
      </trkpt>
      <trkpt lat="45.2936" lon="4.5623">
        <ele>582</ele>
        <time>2014-04-08T13:20:12.000Z</time>
      </trkpt>
      <trkpt lat="45.29362" lon="4.56233">
        <ele>583</ele>
        <time>2014-04-08T13:20:14.000Z</time>
      </trkpt>
      <trkpt lat="45.29363" lon="4.56266">
        <ele>581</ele>
        <time>2014-04-08T13:20:35.000Z</time>
      </trkpt>
      <trkpt lat="45.29363" lon="4.56269">
        <ele>581</ele>
        <time>2014-04-08T13:20:36.000Z</time>
      </trkpt>
      <trkpt lat="45.29372" lon="4.56299">
        <ele>579</ele>
        <time>2014-04-08T13:20:54.000Z</time>
      </trkpt>
      <trkpt lat="45.29372" lon="4.56301">
        <ele>579</ele>
        <time>2014-04-08T13:20:55.000Z</time>
      </trkpt>
      <trkpt lat="45.29378" lon="4.5627">
        <ele>570</ele>
        <time>2014-04-08T13:21:47.000Z</time>
      </trkpt>
      <trkpt lat="45.2938" lon="4.5627">
        <ele>571</ele>
        <time>2014-04-08T13:21:48.000Z</time>
      </trkpt>
      <trkpt lat="45.29392" lon="4.56243">
        <ele>573</ele>
        <time>2014-04-08T13:22:09.000Z</time>
      </trkpt>
      <trkpt lat="45.29391" lon="4.56241">
        <ele>571</ele>
        <time>2014-04-08T13:22:10.000Z</time>
      </trkpt>
      <trkpt lat="45.2939" lon="4.56207">
        <ele>560</ele>
        <time>2014-04-08T13:22:36.000Z</time>
      </trkpt>
      <trkpt lat="45.29389" lon="4.56206">
        <ele>559</ele>
        <time>2014-04-08T13:22:37.000Z</time>
      </trkpt>
      <trkpt lat="45.2938" lon="4.56171">
        <ele>546</ele>
        <time>2014-04-08T13:22:53.000Z</time>
      </trkpt>
      <trkpt lat="45.2938" lon="4.56168">
        <ele>547</ele>
        <time>2014-04-08T13:22:54.000Z</time>
      </trkpt>
      <trkpt lat="45.29388" lon="4.56139">
        <ele>563</ele>
        <time>2014-04-08T13:23:16.000Z</time>
      </trkpt>
      <trkpt lat="45.29389" lon="4.56137">
        <ele>563</ele>
        <time>2014-04-08T13:23:17.000Z</time>
      </trkpt>
      <trkpt lat="45.29398" lon="4.56107">
        <ele>557</ele>
        <time>2014-04-08T13:23:35.000Z</time>
      </trkpt>
      <trkpt lat="45.29398" lon="4.56106">
        <ele>556</ele>
        <time>2014-04-08T13:23:36.000Z</time>
      </trkpt>
      <trkpt lat="45.29394" lon="4.56073">
        <ele>560</ele>
        <time>2014-04-08T13:23:57.000Z</time>
      </trkpt>
      <trkpt lat="45.29396" lon="4.56071">
        <ele>562</ele>
        <time>2014-04-08T13:23:58.000Z</time>
      </trkpt>
      <trkpt lat="45.29338" lon="4.55898">
        <ele>554</ele>
        <time>2014-04-08T13:26:23.000Z</time>
      </trkpt>
      <trkpt lat="45.29341" lon="4.55893">
        <ele>554</ele>
        <time>2014-04-08T13:26:24.000Z</time>
      </trkpt>
      <trkpt lat="45.29354" lon="4.55866">
        <ele>551</ele>
        <time>2014-04-08T13:26:31.000Z</time>
      </trkpt>
      <trkpt lat="45.29355" lon="4.55865">
        <ele>551</ele>
        <time>2014-04-08T13:26:32.000Z</time>
      </trkpt>
      <trkpt lat="45.29361" lon="4.55831">
        <ele>540</ele>
        <time>2014-04-08T13:27:17.000Z</time>
      </trkpt>
      <trkpt lat="45.29362" lon="4.55829">
        <ele>540</ele>
        <time>2014-04-08T13:27:18.000Z</time>
      </trkpt>
      <trkpt lat="45.29365" lon="4.55796">
        <ele>533</ele>
        <time>2014-04-08T13:27:57.000Z</time>
      </trkpt>
      <trkpt lat="45.29365" lon="4.55795">
        <ele>532</ele>
        <time>2014-04-08T13:27:58.000Z</time>
      </trkpt>
      <trkpt lat="45.29377" lon="4.55768">
        <ele>533</ele>
        <time>2014-04-08T13:28:18.000Z</time>
      </trkpt>
      <trkpt lat="45.29378" lon="4.55767">
        <ele>533</ele>
        <time>2014-04-08T13:28:19.000Z</time>
      </trkpt>
      <trkpt lat="45.29394" lon="4.55742">
        <ele>530</ele>
        <time>2014-04-08T13:28:46.000Z</time>
      </trkpt>
      <trkpt lat="45.29395" lon="4.55741">
        <ele>529</ele>
        <time>2014-04-08T13:28:47.000Z</time>
      </trkpt>
      <trkpt lat="45.29407" lon="4.55714">
        <ele>532</ele>
        <time>2014-04-08T13:29:02.000Z</time>
      </trkpt>
      <trkpt lat="45.29408" lon="4.55712">
        <ele>532</ele>
        <time>2014-04-08T13:29:03.000Z</time>
      </trkpt>
      <trkpt lat="45.29427" lon="4.55695">
        <ele>538</ele>
        <time>2014-04-08T13:29:33.000Z</time>
      </trkpt>
      <trkpt lat="45.29428" lon="4.55696">
        <ele>539</ele>
        <time>2014-04-08T13:29:34.000Z</time>
      </trkpt>
      <trkpt lat="45.29446" lon="4.55722">
        <ele>540</ele>
        <time>2014-04-08T13:29:55.000Z</time>
      </trkpt>
      <trkpt lat="45.29447" lon="4.55723">
        <ele>540</ele>
        <time>2014-04-08T13:29:56.000Z</time>
      </trkpt>
      <trkpt lat="45.2947" lon="4.55763">
        <ele>551</ele>
        <time>2014-04-08T13:30:23.000Z</time>
      </trkpt>
      <trkpt lat="45.2947" lon="4.55764">
        <ele>551</ele>
        <time>2014-04-08T13:30:24.000Z</time>
      </trkpt>
      <trkpt lat="45.29492" lon="4.5578">
        <ele>549</ele>
        <time>2014-04-08T13:30:51.000Z</time>
      </trkpt>
      <trkpt lat="45.29494" lon="4.5578">
        <ele>549</ele>
        <time>2014-04-08T13:30:52.000Z</time>
      </trkpt>
      <trkpt lat="45.29511" lon="4.55802">
        <ele>545</ele>
        <time>2014-04-08T13:31:07.000Z</time>
      </trkpt>
      <trkpt lat="45.29512" lon="4.55803">
        <ele>544</ele>
        <time>2014-04-08T13:31:08.000Z</time>
      </trkpt>
      <trkpt lat="45.29529" lon="4.55827">
        <ele>538</ele>
        <time>2014-04-08T13:31:26.000Z</time>
      </trkpt>
      <trkpt lat="45.2953" lon="4.55829">
        <ele>539</ele>
        <time>2014-04-08T13:31:27.000Z</time>
      </trkpt>
      <trkpt lat="45.29538" lon="4.55859">
        <ele>543</ele>
        <time>2014-04-08T13:31:40.000Z</time>
      </trkpt>
      <trkpt lat="45.29538" lon="4.55861">
        <ele>543</ele>
        <time>2014-04-08T13:31:41.000Z</time>
      </trkpt>
      <trkpt lat="45.29548" lon="4.55891">
        <ele>552</ele>
        <time>2014-04-08T13:31:55.000Z</time>
      </trkpt>
      <trkpt lat="45.29548" lon="4.55893">
        <ele>552</ele>
        <time>2014-04-08T13:31:56.000Z</time>
      </trkpt>
      <trkpt lat="45.29574" lon="4.55899">
        <ele>545</ele>
        <time>2014-04-08T13:32:25.000Z</time>
      </trkpt>
      <trkpt lat="45.29575" lon="4.55901">
        <ele>544</ele>
        <time>2014-04-08T13:32:26.000Z</time>
      </trkpt>
      <trkpt lat="45.29595" lon="4.55923">
        <ele>542</ele>
        <time>2014-04-08T13:32:58.000Z</time>
      </trkpt>
      <trkpt lat="45.29596" lon="4.55923">
        <ele>542</ele>
        <time>2014-04-08T13:32:59.000Z</time>
      </trkpt>
      <trkpt lat="45.29615" lon="4.55905">
        <ele>550</ele>
        <time>2014-04-08T13:33:39.000Z</time>
      </trkpt>
      <trkpt lat="45.29615" lon="4.55905">
        <ele>551</ele>
        <time>2014-04-08T13:33:40.000Z</time>
      </trkpt>
      <trkpt lat="45.29636" lon="4.55891">
        <ele>561</ele>
        <time>2014-04-08T13:33:58.000Z</time>
      </trkpt>
      <trkpt lat="45.29639" lon="4.55891">
        <ele>561</ele>
        <time>2014-04-08T13:33:59.000Z</time>
      </trkpt>
      <trkpt lat="45.29661" lon="4.55899">
        <ele>540</ele>
        <time>2014-04-08T13:34:28.000Z</time>
      </trkpt>
      <trkpt lat="45.29662" lon="4.55901">
        <ele>540</ele>
        <time>2014-04-08T13:34:29.000Z</time>
      </trkpt>
      <trkpt lat="45.29672" lon="4.55931">
        <ele>543</ele>
        <time>2014-04-08T13:34:49.000Z</time>
      </trkpt>
      <trkpt lat="45.29672" lon="4.55932">
        <ele>542</ele>
        <time>2014-04-08T13:34:50.000Z</time>
      </trkpt>
      <trkpt lat="45.29679" lon="4.55966">
        <ele>536</ele>
        <time>2014-04-08T13:35:16.000Z</time>
      </trkpt>
      <trkpt lat="45.29679" lon="4.55967">
        <ele>536</ele>
        <time>2014-04-08T13:35:17.000Z</time>
      </trkpt>
      <trkpt lat="45.29696" lon="4.5599">
        <ele>533</ele>
        <time>2014-04-08T13:36:02.000Z</time>
      </trkpt>
      <trkpt lat="45.29696" lon="4.55991">
        <ele>534</ele>
        <time>2014-04-08T13:36:03.000Z</time>
      </trkpt>
      <trkpt lat="45.297" lon="4.56023">
        <ele>544</ele>
        <time>2014-04-08T13:36:34.000Z</time>
      </trkpt>
      <trkpt lat="45.29699" lon="4.56024">
        <ele>544</ele>
        <time>2014-04-08T13:36:35.000Z</time>
      </trkpt>
      <trkpt lat="45.29713" lon="4.56053">
        <ele>541</ele>
        <time>2014-04-08T13:40:40.000Z</time>
      </trkpt>
      <trkpt lat="45.29713" lon="4.56052">
        <ele>543</ele>
        <time>2014-04-08T13:40:41.000Z</time>
      </trkpt>
      <trkpt lat="45.29737" lon="4.56073">
        <ele>551</ele>
        <time>2014-04-08T13:42:38.000Z</time>
      </trkpt>
      <trkpt lat="45.29736" lon="4.56073">
        <ele>551</ele>
        <time>2014-04-08T13:42:39.000Z</time>
      </trkpt>
      <trkpt lat="45.29716" lon="4.56058">
        <ele>545</ele>
        <time>2014-04-08T13:43:08.000Z</time>
      </trkpt>
      <trkpt lat="45.29715" lon="4.56058">
        <ele>545</ele>
        <time>2014-04-08T13:43:09.000Z</time>
      </trkpt>
      <trkpt lat="45.29696" lon="4.56039">
        <ele>547</ele>
        <time>2014-04-08T13:44:22.000Z</time>
      </trkpt>
      <trkpt lat="45.29695" lon="4.56039">
        <ele>546</ele>
        <time>2014-04-08T13:44:23.000Z</time>
      </trkpt>
      <trkpt lat="45.29716" lon="4.5605">
        <ele>549</ele>
        <time>2014-04-08T13:49:27.000Z</time>
      </trkpt>
      <trkpt lat="45.29716" lon="4.56051">
        <ele>549</ele>
        <time>2014-04-08T13:49:28.000Z</time>
      </trkpt>
      <trkpt lat="45.29693" lon="4.56047">
        <ele>529</ele>
        <time>2014-04-08T13:58:19.000Z</time>
      </trkpt>
      <trkpt lat="45.29693" lon="4.56047">
        <ele>529</ele>
        <time>2014-04-08T13:58:20.000Z</time>
      </trkpt>
      <trkpt lat="45.29669" lon="4.56028">
        <ele>511</ele>
        <time>2014-04-08T13:58:21.000Z</time>
      </trkpt>
      <trkpt lat="45.29667" lon="4.56028">
        <ele>510</ele>
        <time>2014-04-08T13:58:22.000Z</time>
      </trkpt>
      <trkpt lat="45.29692" lon="4.56043">
        <ele>532</ele>
        <time>2014-04-08T13:59:10.000Z</time>
      </trkpt>
      <trkpt lat="45.29697" lon="4.56042">
        <ele>537</ele>
        <time>2014-04-08T13:59:12.000Z</time>
      </trkpt>
      <trkpt lat="45.29719" lon="4.56046">
        <ele>535</ele>
        <time>2014-04-08T14:02:57.000Z</time>
      </trkpt>
      <trkpt lat="45.29699" lon="4.56046">
        <ele>539</ele>
        <time>2014-04-08T14:03:32.000Z</time>
      </trkpt>
    </trkseg>
  </trk>
</gpx>